<?xml version="1.0" encoding="UTF-8" standalone="no" ?>
<gpx xmlns="http://www.topografix.com/GPX/1/1" xmlns:xsi="http://www.w3.org/2001/XMLSchema-instance" xsi:schemaLocation="http://www.topografix.com/GPX/1/1 http://www.topografix.com/GPX/1/1/gpx.xsd" version="1.1" creator="VisuGPX - https://www.visugpx.com">
  <metadata>
    <name>Néoules</name>
    <desc><![CDATA[version courte 14 km]]></desc>
  </metadata>
  <trk>
    <name><![CDATA[2014-05-29 Néoules]]></name>
    <trkseg>
      <trkpt lat="43.3094" lon="6.0129">
        <ele>334</ele>
        <time>2014-05-29T07:04:53Z</time>
      </trkpt>
      <trkpt lat="43.3094" lon="6.0129">
        <ele>334</ele>
        <time>2014-05-29T07:04:54Z</time>
      </trkpt>
      <trkpt lat="43.3094" lon="6.01289">
        <ele>334</ele>
        <time>2014-05-29T07:05:10Z</time>
      </trkpt>
      <trkpt lat="43.3094" lon="6.01289">
        <ele>334</ele>
        <time>2014-05-29T07:05:11Z</time>
      </trkpt>
      <trkpt lat="43.30939" lon="6.01291">
        <ele>334</ele>
        <time>2014-05-29T07:05:26Z</time>
      </trkpt>
      <trkpt lat="43.30938" lon="6.01293">
        <ele>334</ele>
        <time>2014-05-29T07:05:46Z</time>
      </trkpt>
      <trkpt lat="43.30937" lon="6.01295">
        <ele>334</ele>
        <time>2014-05-29T07:06:11Z</time>
      </trkpt>
      <trkpt lat="43.30938" lon="6.01293">
        <ele>334</ele>
        <time>2014-05-29T07:06:47Z</time>
      </trkpt>
      <trkpt lat="43.30939" lon="6.0129">
        <ele>334</ele>
        <time>2014-05-29T07:07:00Z</time>
      </trkpt>
      <trkpt lat="43.3094" lon="6.01289">
        <ele>334</ele>
        <time>2014-05-29T07:07:23Z</time>
      </trkpt>
      <trkpt lat="43.30939" lon="6.01289">
        <ele>334</ele>
        <time>2014-05-29T07:07:46Z</time>
      </trkpt>
      <trkpt lat="43.3094" lon="6.01288">
        <ele>334</ele>
        <time>2014-05-29T07:08:09Z</time>
      </trkpt>
      <trkpt lat="43.30941" lon="6.01287">
        <ele>334</ele>
        <time>2014-05-29T07:08:25Z</time>
      </trkpt>
      <trkpt lat="43.30941" lon="6.01299">
        <ele>334</ele>
        <time>2014-05-29T07:08:32Z</time>
      </trkpt>
      <trkpt lat="43.30935" lon="6.01304">
        <ele>334</ele>
        <time>2014-05-29T07:08:36Z</time>
      </trkpt>
      <trkpt lat="43.30934" lon="6.01329">
        <ele>334</ele>
        <time>2014-05-29T07:08:45Z</time>
      </trkpt>
      <trkpt lat="43.30933" lon="6.0133">
        <ele>334</ele>
        <time>2014-05-29T07:08:46Z</time>
      </trkpt>
      <trkpt lat="43.30931" lon="6.01331">
        <ele>334</ele>
        <time>2014-05-29T07:08:47Z</time>
      </trkpt>
      <trkpt lat="43.30908" lon="6.01337">
        <ele>334.08984375</ele>
        <time>2014-05-29T07:09:00Z</time>
      </trkpt>
      <trkpt lat="43.30884" lon="6.01345">
        <ele>334.68359375</ele>
        <time>2014-05-29T07:09:13Z</time>
      </trkpt>
      <trkpt lat="43.30848" lon="6.01355">
        <ele>335</ele>
        <time>2014-05-29T07:09:28Z</time>
      </trkpt>
      <trkpt lat="43.30809" lon="6.01374">
        <ele>335.65234375</ele>
        <time>2014-05-29T07:09:45Z</time>
      </trkpt>
      <trkpt lat="43.3078" lon="6.01403">
        <ele>336.9765625</ele>
        <time>2014-05-29T07:09:59Z</time>
      </trkpt>
      <trkpt lat="43.30754" lon="6.01422">
        <ele>337.92578125</ele>
        <time>2014-05-29T07:10:11Z</time>
      </trkpt>
      <trkpt lat="43.30722" lon="6.01445">
        <ele>339.0078125</ele>
        <time>2014-05-29T07:10:24Z</time>
      </trkpt>
      <trkpt lat="43.30682" lon="6.01467">
        <ele>340.44140625</ele>
        <time>2014-05-29T07:10:40Z</time>
      </trkpt>
      <trkpt lat="43.30646" lon="6.01491">
        <ele>341.74609375</ele>
        <time>2014-05-29T07:10:57Z</time>
      </trkpt>
      <trkpt lat="43.30615" lon="6.01512">
        <ele>343.8359375</ele>
        <time>2014-05-29T07:11:12Z</time>
      </trkpt>
      <trkpt lat="43.30578" lon="6.01528">
        <ele>345.57421875</ele>
        <time>2014-05-29T07:11:29Z</time>
      </trkpt>
      <trkpt lat="43.30546" lon="6.0155">
        <ele>347.6796875</ele>
        <time>2014-05-29T07:11:45Z</time>
      </trkpt>
      <trkpt lat="43.30546" lon="6.01553">
        <ele>347.73828125</ele>
        <time>2014-05-29T07:11:46Z</time>
      </trkpt>
      <trkpt lat="43.30545" lon="6.01556">
        <ele>347.7734375</ele>
        <time>2014-05-29T07:11:47Z</time>
      </trkpt>
      <trkpt lat="43.30545" lon="6.01559">
        <ele>347.796875</ele>
        <time>2014-05-29T07:11:48Z</time>
      </trkpt>
      <trkpt lat="43.30545" lon="6.01563">
        <ele>347.8046875</ele>
        <time>2014-05-29T07:11:49Z</time>
      </trkpt>
      <trkpt lat="43.30545" lon="6.01566">
        <ele>347.7890625</ele>
        <time>2014-05-29T07:11:50Z</time>
      </trkpt>
      <trkpt lat="43.30545" lon="6.01569">
        <ele>347.76953125</ele>
        <time>2014-05-29T07:11:51Z</time>
      </trkpt>
      <trkpt lat="43.30545" lon="6.01573">
        <ele>347.7578125</ele>
        <time>2014-05-29T07:11:52Z</time>
      </trkpt>
      <trkpt lat="43.30548" lon="6.0162">
        <ele>347.2734375</ele>
        <time>2014-05-29T07:12:06Z</time>
      </trkpt>
      <trkpt lat="43.30541" lon="6.01666">
        <ele>347.6171875</ele>
        <time>2014-05-29T07:12:19Z</time>
      </trkpt>
      <trkpt lat="43.30518" lon="6.01707">
        <ele>349.51953125</ele>
        <time>2014-05-29T07:12:31Z</time>
      </trkpt>
      <trkpt lat="43.30513" lon="6.01757">
        <ele>351.1953125</ele>
        <time>2014-05-29T07:12:43Z</time>
      </trkpt>
      <trkpt lat="43.3052" lon="6.01799">
        <ele>353.23046875</ele>
        <time>2014-05-29T07:12:55Z</time>
      </trkpt>
      <trkpt lat="43.30539" lon="6.01845">
        <ele>356.96484375</ele>
        <time>2014-05-29T07:13:11Z</time>
      </trkpt>
      <trkpt lat="43.30561" lon="6.01871">
        <ele>360.14453125</ele>
        <time>2014-05-29T07:13:24Z</time>
      </trkpt>
      <trkpt lat="43.30569" lon="6.01911">
        <ele>363.36328125</ele>
        <time>2014-05-29T07:13:38Z</time>
      </trkpt>
      <trkpt lat="43.30569" lon="6.01942">
        <ele>366.765625</ele>
        <time>2014-05-29T07:13:50Z</time>
      </trkpt>
      <trkpt lat="43.30558" lon="6.01978">
        <ele>369.0546875</ele>
        <time>2014-05-29T07:14:06Z</time>
      </trkpt>
      <trkpt lat="43.30543" lon="6.02018">
        <ele>371.21875</ele>
        <time>2014-05-29T07:14:22Z</time>
      </trkpt>
      <trkpt lat="43.3053" lon="6.02052">
        <ele>373.33203125</ele>
        <time>2014-05-29T07:14:36Z</time>
      </trkpt>
      <trkpt lat="43.30508" lon="6.02102">
        <ele>373.46484375</ele>
        <time>2014-05-29T07:14:54Z</time>
      </trkpt>
      <trkpt lat="43.30478" lon="6.02142">
        <ele>371.48046875</ele>
        <time>2014-05-29T07:15:13Z</time>
      </trkpt>
      <trkpt lat="43.30452" lon="6.02146">
        <ele>372.8515625</ele>
        <time>2014-05-29T07:15:27Z</time>
      </trkpt>
      <trkpt lat="43.30412" lon="6.02144">
        <ele>377.03125</ele>
        <time>2014-05-29T07:15:49Z</time>
      </trkpt>
      <trkpt lat="43.30386" lon="6.02138">
        <ele>379.953125</ele>
        <time>2014-05-29T07:16:04Z</time>
      </trkpt>
      <trkpt lat="43.30355" lon="6.02127">
        <ele>383.31640625</ele>
        <time>2014-05-29T07:16:20Z</time>
      </trkpt>
      <trkpt lat="43.3032" lon="6.02121">
        <ele>387.85546875</ele>
        <time>2014-05-29T07:16:38Z</time>
      </trkpt>
      <trkpt lat="43.30302" lon="6.0211">
        <ele>389.3359375</ele>
        <time>2014-05-29T07:16:48Z</time>
      </trkpt>
      <trkpt lat="43.30291" lon="6.02076">
        <ele>387.9453125</ele>
        <time>2014-05-29T07:17:03Z</time>
      </trkpt>
      <trkpt lat="43.30291" lon="6.0205">
        <ele>385.75</ele>
        <time>2014-05-29T07:17:14Z</time>
      </trkpt>
      <trkpt lat="43.3029" lon="6.02047">
        <ele>385.89453125</ele>
        <time>2014-05-29T07:17:15Z</time>
      </trkpt>
      <trkpt lat="43.3029" lon="6.02045">
        <ele>385.99609375</ele>
        <time>2014-05-29T07:17:16Z</time>
      </trkpt>
      <trkpt lat="43.30281" lon="6.0201">
        <ele>388.3828125</ele>
        <time>2014-05-29T07:17:31Z</time>
      </trkpt>
      <trkpt lat="43.30267" lon="6.01975">
        <ele>391.73046875</ele>
        <time>2014-05-29T07:17:47Z</time>
      </trkpt>
      <trkpt lat="43.30251" lon="6.01938">
        <ele>395.8515625</ele>
        <time>2014-05-29T07:18:04Z</time>
      </trkpt>
      <trkpt lat="43.30244" lon="6.019">
        <ele>398.67578125</ele>
        <time>2014-05-29T07:18:20Z</time>
      </trkpt>
      <trkpt lat="43.30236" lon="6.0187">
        <ele>403.8046875</ele>
        <time>2014-05-29T07:18:34Z</time>
      </trkpt>
      <trkpt lat="43.30233" lon="6.01872">
        <ele>404.12890625</ele>
        <time>2014-05-29T07:18:36Z</time>
      </trkpt>
      <trkpt lat="43.30232" lon="6.01874">
        <ele>404.13671875</ele>
        <time>2014-05-29T07:18:37Z</time>
      </trkpt>
      <trkpt lat="43.30231" lon="6.01877">
        <ele>404.07421875</ele>
        <time>2014-05-29T07:18:38Z</time>
      </trkpt>
      <trkpt lat="43.3023" lon="6.01879">
        <ele>403.96875</ele>
        <time>2014-05-29T07:18:39Z</time>
      </trkpt>
      <trkpt lat="43.30229" lon="6.01882">
        <ele>403.82421875</ele>
        <time>2014-05-29T07:18:40Z</time>
      </trkpt>
      <trkpt lat="43.30228" lon="6.01885">
        <ele>403.7109375</ele>
        <time>2014-05-29T07:18:41Z</time>
      </trkpt>
      <trkpt lat="43.30229" lon="6.01931">
        <ele>401.5078125</ele>
        <time>2014-05-29T07:18:58Z</time>
      </trkpt>
      <trkpt lat="43.30213" lon="6.01966">
        <ele>406.51171875</ele>
        <time>2014-05-29T07:19:15Z</time>
      </trkpt>
      <trkpt lat="43.30197" lon="6.01996">
        <ele>410.56640625</ele>
        <time>2014-05-29T07:19:30Z</time>
      </trkpt>
      <trkpt lat="43.30193" lon="6.02011">
        <ele>411.61328125</ele>
        <time>2014-05-29T07:19:36Z</time>
      </trkpt>
      <trkpt lat="43.30193" lon="6.02013">
        <ele>411.5859375</ele>
        <time>2014-05-29T07:19:37Z</time>
      </trkpt>
      <trkpt lat="43.30192" lon="6.02016">
        <ele>411.640625</ele>
        <time>2014-05-29T07:19:38Z</time>
      </trkpt>
      <trkpt lat="43.30192" lon="6.02018">
        <ele>411.6953125</ele>
        <time>2014-05-29T07:19:39Z</time>
      </trkpt>
      <trkpt lat="43.30192" lon="6.02021">
        <ele>411.75</ele>
        <time>2014-05-29T07:19:40Z</time>
      </trkpt>
      <trkpt lat="43.30191" lon="6.02023">
        <ele>411.8828125</ele>
        <time>2014-05-29T07:19:41Z</time>
      </trkpt>
      <trkpt lat="43.30191" lon="6.02026">
        <ele>411.98046875</ele>
        <time>2014-05-29T07:19:42Z</time>
      </trkpt>
      <trkpt lat="43.30191" lon="6.02028">
        <ele>412.0234375</ele>
        <time>2014-05-29T07:19:43Z</time>
      </trkpt>
      <trkpt lat="43.30191" lon="6.02031">
        <ele>412.0546875</ele>
        <time>2014-05-29T07:19:44Z</time>
      </trkpt>
      <trkpt lat="43.30187" lon="6.02073">
        <ele>412.34765625</ele>
        <time>2014-05-29T07:20:01Z</time>
      </trkpt>
      <trkpt lat="43.30178" lon="6.02116">
        <ele>414.46484375</ele>
        <time>2014-05-29T07:20:19Z</time>
      </trkpt>
      <trkpt lat="43.30165" lon="6.02142">
        <ele>417.828125</ele>
        <time>2014-05-29T07:20:34Z</time>
      </trkpt>
      <trkpt lat="43.3016" lon="6.02148">
        <ele>418.9921875</ele>
        <time>2014-05-29T07:20:42Z</time>
      </trkpt>
      <trkpt lat="43.30159" lon="6.0215">
        <ele>419.28125</ele>
        <time>2014-05-29T07:20:44Z</time>
      </trkpt>
      <trkpt lat="43.30156" lon="6.02156">
        <ele>419.984375</ele>
        <time>2014-05-29T07:20:49Z</time>
      </trkpt>
      <trkpt lat="43.30155" lon="6.02157">
        <ele>420.1015625</ele>
        <time>2014-05-29T07:20:50Z</time>
      </trkpt>
      <trkpt lat="43.30154" lon="6.02158">
        <ele>420.26171875</ele>
        <time>2014-05-29T07:20:51Z</time>
      </trkpt>
      <trkpt lat="43.30154" lon="6.02159">
        <ele>420.4140625</ele>
        <time>2014-05-29T07:20:52Z</time>
      </trkpt>
      <trkpt lat="43.30153" lon="6.0216">
        <ele>420.55859375</ele>
        <time>2014-05-29T07:20:53Z</time>
      </trkpt>
      <trkpt lat="43.30152" lon="6.02162">
        <ele>420.76953125</ele>
        <time>2014-05-29T07:20:54Z</time>
      </trkpt>
      <trkpt lat="43.30136" lon="6.02186">
        <ele>424.375</ele>
        <time>2014-05-29T07:21:09Z</time>
      </trkpt>
      <trkpt lat="43.30115" lon="6.02219">
        <ele>431.1015625</ele>
        <time>2014-05-29T07:21:27Z</time>
      </trkpt>
      <trkpt lat="43.30108" lon="6.0223">
        <ele>432.88671875</ele>
        <time>2014-05-29T07:21:33Z</time>
      </trkpt>
      <trkpt lat="43.30107" lon="6.02232">
        <ele>433.15625</ele>
        <time>2014-05-29T07:21:34Z</time>
      </trkpt>
      <trkpt lat="43.30106" lon="6.02234">
        <ele>433.44140625</ele>
        <time>2014-05-29T07:21:35Z</time>
      </trkpt>
      <trkpt lat="43.30096" lon="6.02253">
        <ele>436.27734375</ele>
        <time>2014-05-29T07:21:45Z</time>
      </trkpt>
      <trkpt lat="43.30094" lon="6.02255">
        <ele>436.53515625</ele>
        <time>2014-05-29T07:21:46Z</time>
      </trkpt>
      <trkpt lat="43.30077" lon="6.02295">
        <ele>442.3515625</ele>
        <time>2014-05-29T07:22:05Z</time>
      </trkpt>
      <trkpt lat="43.30096" lon="6.02317">
        <ele>445.70703125</ele>
        <time>2014-05-29T07:22:19Z</time>
      </trkpt>
      <trkpt lat="43.30111" lon="6.02319">
        <ele>446.5546875</ele>
        <time>2014-05-29T07:22:28Z</time>
      </trkpt>
      <trkpt lat="43.30112" lon="6.02322">
        <ele>446.96875</ele>
        <time>2014-05-29T07:22:29Z</time>
      </trkpt>
      <trkpt lat="43.30112" lon="6.02324">
        <ele>447.4140625</ele>
        <time>2014-05-29T07:22:30Z</time>
      </trkpt>
      <trkpt lat="43.30111" lon="6.02326">
        <ele>447.7890625</ele>
        <time>2014-05-29T07:22:31Z</time>
      </trkpt>
      <trkpt lat="43.30109" lon="6.02328">
        <ele>448</ele>
        <time>2014-05-29T07:22:32Z</time>
      </trkpt>
      <trkpt lat="43.30107" lon="6.02329">
        <ele>448.1171875</ele>
        <time>2014-05-29T07:22:33Z</time>
      </trkpt>
      <trkpt lat="43.30105" lon="6.0233">
        <ele>448.21875</ele>
        <time>2014-05-29T07:22:34Z</time>
      </trkpt>
      <trkpt lat="43.30074" lon="6.02349">
        <ele>450.13671875</ele>
        <time>2014-05-29T07:22:52Z</time>
      </trkpt>
      <trkpt lat="43.30053" lon="6.02361">
        <ele>450.859375</ele>
        <time>2014-05-29T07:23:05Z</time>
      </trkpt>
      <trkpt lat="43.30023" lon="6.0238">
        <ele>452.3359375</ele>
        <time>2014-05-29T07:23:24Z</time>
      </trkpt>
      <trkpt lat="43.29992" lon="6.02392">
        <ele>452.36328125</ele>
        <time>2014-05-29T07:23:41Z</time>
      </trkpt>
      <trkpt lat="43.29957" lon="6.02409">
        <ele>455.140625</ele>
        <time>2014-05-29T07:24:00Z</time>
      </trkpt>
      <trkpt lat="43.29938" lon="6.0245">
        <ele>454.6484375</ele>
        <time>2014-05-29T07:24:16Z</time>
      </trkpt>
      <trkpt lat="43.29919" lon="6.02488">
        <ele>452.46484375</ele>
        <time>2014-05-29T07:24:30Z</time>
      </trkpt>
      <trkpt lat="43.29888" lon="6.02517">
        <ele>453.71875</ele>
        <time>2014-05-29T07:24:47Z</time>
      </trkpt>
      <trkpt lat="43.29852" lon="6.02524">
        <ele>457.76171875</ele>
        <time>2014-05-29T07:25:06Z</time>
      </trkpt>
      <trkpt lat="43.29812" lon="6.02522">
        <ele>461.5859375</ele>
        <time>2014-05-29T07:25:25Z</time>
      </trkpt>
      <trkpt lat="43.29773" lon="6.0252">
        <ele>463.4296875</ele>
        <time>2014-05-29T07:25:44Z</time>
      </trkpt>
      <trkpt lat="43.2974" lon="6.02512">
        <ele>466.07421875</ele>
        <time>2014-05-29T07:26:00Z</time>
      </trkpt>
      <trkpt lat="43.29706" lon="6.02474">
        <ele>471.46875</ele>
        <time>2014-05-29T07:26:21Z</time>
      </trkpt>
      <trkpt lat="43.29678" lon="6.02439">
        <ele>475.0390625</ele>
        <time>2014-05-29T07:26:39Z</time>
      </trkpt>
      <trkpt lat="43.29649" lon="6.0241">
        <ele>476.05859375</ele>
        <time>2014-05-29T07:26:56Z</time>
      </trkpt>
      <trkpt lat="43.29623" lon="6.02376">
        <ele>478.21484375</ele>
        <time>2014-05-29T07:27:13Z</time>
      </trkpt>
      <trkpt lat="43.29614" lon="6.02341">
        <ele>481.75390625</ele>
        <time>2014-05-29T07:27:26Z</time>
      </trkpt>
      <trkpt lat="43.29613" lon="6.02338">
        <ele>481.9609375</ele>
        <time>2014-05-29T07:27:27Z</time>
      </trkpt>
      <trkpt lat="43.29603" lon="6.02295">
        <ele>484.34375</ele>
        <time>2014-05-29T07:27:43Z</time>
      </trkpt>
      <trkpt lat="43.29575" lon="6.02249">
        <ele>485.89453125</ele>
        <time>2014-05-29T07:28:05Z</time>
      </trkpt>
      <trkpt lat="43.2954" lon="6.02227">
        <ele>486.9296875</ele>
        <time>2014-05-29T07:28:24Z</time>
      </trkpt>
      <trkpt lat="43.29505" lon="6.02223">
        <ele>487.87109375</ele>
        <time>2014-05-29T07:28:41Z</time>
      </trkpt>
      <trkpt lat="43.29477" lon="6.02223">
        <ele>489.83984375</ele>
        <time>2014-05-29T07:28:56Z</time>
      </trkpt>
      <trkpt lat="43.29449" lon="6.02234">
        <ele>491.05078125</ele>
        <time>2014-05-29T07:29:11Z</time>
      </trkpt>
      <trkpt lat="43.29415" lon="6.02251">
        <ele>493.9609375</ele>
        <time>2014-05-29T07:29:29Z</time>
      </trkpt>
      <trkpt lat="43.29388" lon="6.02258">
        <ele>497.78515625</ele>
        <time>2014-05-29T07:29:47Z</time>
      </trkpt>
      <trkpt lat="43.29388" lon="6.02258">
        <ele>497.7890625</ele>
        <time>2014-05-29T07:30:17Z</time>
      </trkpt>
      <trkpt lat="43.29384" lon="6.02258">
        <ele>498.26953125</ele>
        <time>2014-05-29T07:30:46Z</time>
      </trkpt>
      <trkpt lat="43.29383" lon="6.02259">
        <ele>498.37109375</ele>
        <time>2014-05-29T07:30:47Z</time>
      </trkpt>
      <trkpt lat="43.29382" lon="6.02259">
        <ele>498.5234375</ele>
        <time>2014-05-29T07:30:48Z</time>
      </trkpt>
      <trkpt lat="43.2938" lon="6.0226">
        <ele>498.67578125</ele>
        <time>2014-05-29T07:30:49Z</time>
      </trkpt>
      <trkpt lat="43.29379" lon="6.0226">
        <ele>498.8359375</ele>
        <time>2014-05-29T07:30:50Z</time>
      </trkpt>
      <trkpt lat="43.29378" lon="6.0226">
        <ele>499.01171875</ele>
        <time>2014-05-29T07:30:51Z</time>
      </trkpt>
      <trkpt lat="43.29376" lon="6.0226">
        <ele>499.21875</ele>
        <time>2014-05-29T07:30:52Z</time>
      </trkpt>
      <trkpt lat="43.29375" lon="6.0226">
        <ele>499.41015625</ele>
        <time>2014-05-29T07:30:53Z</time>
      </trkpt>
      <trkpt lat="43.29373" lon="6.0226">
        <ele>499.61328125</ele>
        <time>2014-05-29T07:30:54Z</time>
      </trkpt>
      <trkpt lat="43.29371" lon="6.0226">
        <ele>499.8515625</ele>
        <time>2014-05-29T07:30:55Z</time>
      </trkpt>
      <trkpt lat="43.29369" lon="6.0226">
        <ele>500.109375</ele>
        <time>2014-05-29T07:30:56Z</time>
      </trkpt>
      <trkpt lat="43.29337" lon="6.02266">
        <ele>503.7578125</ele>
        <time>2014-05-29T07:31:13Z</time>
      </trkpt>
      <trkpt lat="43.29307" lon="6.02267">
        <ele>506.74609375</ele>
        <time>2014-05-29T07:31:27Z</time>
      </trkpt>
      <trkpt lat="43.29274" lon="6.02261">
        <ele>509.43359375</ele>
        <time>2014-05-29T07:31:44Z</time>
      </trkpt>
      <trkpt lat="43.29241" lon="6.02253">
        <ele>512.10546875</ele>
        <time>2014-05-29T07:32:02Z</time>
      </trkpt>
      <trkpt lat="43.29234" lon="6.02225">
        <ele>511.796875</ele>
        <time>2014-05-29T07:32:14Z</time>
      </trkpt>
      <trkpt lat="43.29232" lon="6.02175">
        <ele>511.640625</ele>
        <time>2014-05-29T07:32:25Z</time>
      </trkpt>
      <trkpt lat="43.2923" lon="6.02169">
        <ele>511.58203125</ele>
        <time>2014-05-29T07:32:26Z</time>
      </trkpt>
      <trkpt lat="43.29226" lon="6.02158">
        <ele>511.3515625</ele>
        <time>2014-05-29T07:32:28Z</time>
      </trkpt>
      <trkpt lat="43.29225" lon="6.02152">
        <ele>511.2578125</ele>
        <time>2014-05-29T07:32:29Z</time>
      </trkpt>
      <trkpt lat="43.29225" lon="6.02138">
        <ele>511.1953125</ele>
        <time>2014-05-29T07:32:31Z</time>
      </trkpt>
      <trkpt lat="43.29225" lon="6.0213">
        <ele>511.16015625</ele>
        <time>2014-05-29T07:32:32Z</time>
      </trkpt>
      <trkpt lat="43.29226" lon="6.02123">
        <ele>511.1015625</ele>
        <time>2014-05-29T07:32:33Z</time>
      </trkpt>
      <trkpt lat="43.29228" lon="6.02116">
        <ele>511.22265625</ele>
        <time>2014-05-29T07:32:34Z</time>
      </trkpt>
      <trkpt lat="43.2924" lon="6.02088">
        <ele>512.42578125</ele>
        <time>2014-05-29T07:32:39Z</time>
      </trkpt>
      <trkpt lat="43.29247" lon="6.02046">
        <ele>512.296875</ele>
        <time>2014-05-29T07:32:50Z</time>
      </trkpt>
      <trkpt lat="43.29247" lon="6.02043">
        <ele>512.26953125</ele>
        <time>2014-05-29T07:32:51Z</time>
      </trkpt>
      <trkpt lat="43.29248" lon="6.02039">
        <ele>512.3828125</ele>
        <time>2014-05-29T07:32:52Z</time>
      </trkpt>
      <trkpt lat="43.29248" lon="6.02036">
        <ele>512.48828125</ele>
        <time>2014-05-29T07:32:53Z</time>
      </trkpt>
      <trkpt lat="43.29249" lon="6.02032">
        <ele>512.61328125</ele>
        <time>2014-05-29T07:32:54Z</time>
      </trkpt>
      <trkpt lat="43.2925" lon="6.02029">
        <ele>512.7734375</ele>
        <time>2014-05-29T07:32:55Z</time>
      </trkpt>
      <trkpt lat="43.2925" lon="6.02025">
        <ele>512.87109375</ele>
        <time>2014-05-29T07:32:56Z</time>
      </trkpt>
      <trkpt lat="43.29249" lon="6.02012">
        <ele>512.578125</ele>
        <time>2014-05-29T07:33:00Z</time>
      </trkpt>
      <trkpt lat="43.29248" lon="6.0201">
        <ele>512.38671875</ele>
        <time>2014-05-29T07:33:01Z</time>
      </trkpt>
      <trkpt lat="43.29247" lon="6.02008">
        <ele>512.2265625</ele>
        <time>2014-05-29T07:33:02Z</time>
      </trkpt>
      <trkpt lat="43.29246" lon="6.02006">
        <ele>512.02734375</ele>
        <time>2014-05-29T07:33:03Z</time>
      </trkpt>
      <trkpt lat="43.29245" lon="6.02005">
        <ele>511.8125</ele>
        <time>2014-05-29T07:33:04Z</time>
      </trkpt>
      <trkpt lat="43.29243" lon="6.02004">
        <ele>511.58203125</ele>
        <time>2014-05-29T07:33:05Z</time>
      </trkpt>
      <trkpt lat="43.29242" lon="6.02003">
        <ele>511.296875</ele>
        <time>2014-05-29T07:33:06Z</time>
      </trkpt>
      <trkpt lat="43.2924" lon="6.02002">
        <ele>510.9375</ele>
        <time>2014-05-29T07:33:07Z</time>
      </trkpt>
      <trkpt lat="43.29237" lon="6.02002">
        <ele>510.52734375</ele>
        <time>2014-05-29T07:33:08Z</time>
      </trkpt>
      <trkpt lat="43.29214" lon="6.01979">
        <ele>507.83984375</ele>
        <time>2014-05-29T07:33:20Z</time>
      </trkpt>
      <trkpt lat="43.29208" lon="6.01949">
        <ele>508.3828125</ele>
        <time>2014-05-29T07:33:27Z</time>
      </trkpt>
      <trkpt lat="43.29206" lon="6.01946">
        <ele>508.25390625</ele>
        <time>2014-05-29T07:33:28Z</time>
      </trkpt>
      <trkpt lat="43.29204" lon="6.01944">
        <ele>507.99609375</ele>
        <time>2014-05-29T07:33:29Z</time>
      </trkpt>
      <trkpt lat="43.29172" lon="6.01927">
        <ele>505.70703125</ele>
        <time>2014-05-29T07:33:41Z</time>
      </trkpt>
      <trkpt lat="43.2915" lon="6.01888">
        <ele>505.04296875</ele>
        <time>2014-05-29T07:33:51Z</time>
      </trkpt>
      <trkpt lat="43.29147" lon="6.01882">
        <ele>504.83203125</ele>
        <time>2014-05-29T07:33:52Z</time>
      </trkpt>
      <trkpt lat="43.29119" lon="6.01812">
        <ele>503.4140625</ele>
        <time>2014-05-29T07:34:03Z</time>
      </trkpt>
      <trkpt lat="43.29106" lon="6.01781">
        <ele>501.58984375</ele>
        <time>2014-05-29T07:34:08Z</time>
      </trkpt>
      <trkpt lat="43.29093" lon="6.0174">
        <ele>500.89453125</ele>
        <time>2014-05-29T07:34:14Z</time>
      </trkpt>
      <trkpt lat="43.29092" lon="6.01733">
        <ele>500.80078125</ele>
        <time>2014-05-29T07:34:15Z</time>
      </trkpt>
      <trkpt lat="43.29092" lon="6.01726">
        <ele>500.78515625</ele>
        <time>2014-05-29T07:34:16Z</time>
      </trkpt>
      <trkpt lat="43.29092" lon="6.01719">
        <ele>500.77734375</ele>
        <time>2014-05-29T07:34:17Z</time>
      </trkpt>
      <trkpt lat="43.29091" lon="6.01712">
        <ele>500.53125</ele>
        <time>2014-05-29T07:34:18Z</time>
      </trkpt>
      <trkpt lat="43.29091" lon="6.01705">
        <ele>500.21875</ele>
        <time>2014-05-29T07:34:19Z</time>
      </trkpt>
      <trkpt lat="43.29089" lon="6.01682">
        <ele>499.23046875</ele>
        <time>2014-05-29T07:34:22Z</time>
      </trkpt>
      <trkpt lat="43.29088" lon="6.01674">
        <ele>498.86328125</ele>
        <time>2014-05-29T07:34:23Z</time>
      </trkpt>
      <trkpt lat="43.29087" lon="6.01667">
        <ele>498.4765625</ele>
        <time>2014-05-29T07:34:24Z</time>
      </trkpt>
      <trkpt lat="43.29082" lon="6.0165">
        <ele>497.43359375</ele>
        <time>2014-05-29T07:34:27Z</time>
      </trkpt>
      <trkpt lat="43.29082" lon="6.01649">
        <ele>497.35546875</ele>
        <time>2014-05-29T07:34:36Z</time>
      </trkpt>
      <trkpt lat="43.29085" lon="6.01649">
        <ele>497.6328125</ele>
        <time>2014-05-29T07:34:45Z</time>
      </trkpt>
      <trkpt lat="43.29086" lon="6.01651">
        <ele>497.74609375</ele>
        <time>2014-05-29T07:34:46Z</time>
      </trkpt>
      <trkpt lat="43.29086" lon="6.01654">
        <ele>497.9453125</ele>
        <time>2014-05-29T07:34:48Z</time>
      </trkpt>
      <trkpt lat="43.29087" lon="6.01655">
        <ele>498.078125</ele>
        <time>2014-05-29T07:34:49Z</time>
      </trkpt>
      <trkpt lat="43.29086" lon="6.01651">
        <ele>497.76953125</ele>
        <time>2014-05-29T07:34:57Z</time>
      </trkpt>
      <trkpt lat="43.29086" lon="6.01648">
        <ele>497.640625</ele>
        <time>2014-05-29T07:34:58Z</time>
      </trkpt>
      <trkpt lat="43.29086" lon="6.01645">
        <ele>497.5390625</ele>
        <time>2014-05-29T07:34:59Z</time>
      </trkpt>
      <trkpt lat="43.29087" lon="6.01641">
        <ele>497.4609375</ele>
        <time>2014-05-29T07:35:00Z</time>
      </trkpt>
      <trkpt lat="43.29088" lon="6.01637">
        <ele>497.36328125</ele>
        <time>2014-05-29T07:35:01Z</time>
      </trkpt>
      <trkpt lat="43.29088" lon="6.01633">
        <ele>497.18359375</ele>
        <time>2014-05-29T07:35:02Z</time>
      </trkpt>
      <trkpt lat="43.29088" lon="6.01628">
        <ele>496.859375</ele>
        <time>2014-05-29T07:35:03Z</time>
      </trkpt>
      <trkpt lat="43.29089" lon="6.01624">
        <ele>496.5625</ele>
        <time>2014-05-29T07:35:04Z</time>
      </trkpt>
      <trkpt lat="43.29107" lon="6.016">
        <ele>495.22265625</ele>
        <time>2014-05-29T07:35:13Z</time>
      </trkpt>
      <trkpt lat="43.29119" lon="6.01597">
        <ele>495.7734375</ele>
        <time>2014-05-29T07:35:22Z</time>
      </trkpt>
      <trkpt lat="43.29121" lon="6.01597">
        <ele>495.91796875</ele>
        <time>2014-05-29T07:35:23Z</time>
      </trkpt>
      <trkpt lat="43.29122" lon="6.01597">
        <ele>496.08203125</ele>
        <time>2014-05-29T07:35:24Z</time>
      </trkpt>
      <trkpt lat="43.29124" lon="6.01597">
        <ele>496.26171875</ele>
        <time>2014-05-29T07:35:25Z</time>
      </trkpt>
      <trkpt lat="43.29125" lon="6.01597">
        <ele>496.39453125</ele>
        <time>2014-05-29T07:35:26Z</time>
      </trkpt>
      <trkpt lat="43.29126" lon="6.01596">
        <ele>496.51171875</ele>
        <time>2014-05-29T07:35:27Z</time>
      </trkpt>
      <trkpt lat="43.2915" lon="6.01583">
        <ele>497.70703125</ele>
        <time>2014-05-29T07:35:40Z</time>
      </trkpt>
      <trkpt lat="43.29153" lon="6.01583">
        <ele>498.046875</ele>
        <time>2014-05-29T07:35:42Z</time>
      </trkpt>
      <trkpt lat="43.29155" lon="6.01582">
        <ele>498.17578125</ele>
        <time>2014-05-29T07:35:43Z</time>
      </trkpt>
      <trkpt lat="43.29173" lon="6.01575">
        <ele>499.203125</ele>
        <time>2014-05-29T07:35:54Z</time>
      </trkpt>
      <trkpt lat="43.29174" lon="6.01573">
        <ele>499.1640625</ele>
        <time>2014-05-29T07:35:55Z</time>
      </trkpt>
      <trkpt lat="43.29175" lon="6.01572">
        <ele>499.09765625</ele>
        <time>2014-05-29T07:35:56Z</time>
      </trkpt>
      <trkpt lat="43.29194" lon="6.01552">
        <ele>499.0703125</ele>
        <time>2014-05-29T07:36:06Z</time>
      </trkpt>
      <trkpt lat="43.29214" lon="6.01521">
        <ele>497.07421875</ele>
        <time>2014-05-29T07:36:16Z</time>
      </trkpt>
      <trkpt lat="43.29253" lon="6.01498">
        <ele>496.4921875</ele>
        <time>2014-05-29T07:36:30Z</time>
      </trkpt>
      <trkpt lat="43.29288" lon="6.0149">
        <ele>496.859375</ele>
        <time>2014-05-29T07:36:44Z</time>
      </trkpt>
      <trkpt lat="43.29326" lon="6.01487">
        <ele>498.06640625</ele>
        <time>2014-05-29T07:36:59Z</time>
      </trkpt>
      <trkpt lat="43.29356" lon="6.01485">
        <ele>499.05859375</ele>
        <time>2014-05-29T07:37:11Z</time>
      </trkpt>
      <trkpt lat="43.29382" lon="6.0147">
        <ele>498.921875</ele>
        <time>2014-05-29T07:37:23Z</time>
      </trkpt>
      <trkpt lat="43.29388" lon="6.01437">
        <ele>497.9453125</ele>
        <time>2014-05-29T07:37:34Z</time>
      </trkpt>
      <trkpt lat="43.29392" lon="6.01392">
        <ele>498.05859375</ele>
        <time>2014-05-29T07:37:48Z</time>
      </trkpt>
      <trkpt lat="43.2941" lon="6.01351">
        <ele>498</ele>
        <time>2014-05-29T07:38:02Z</time>
      </trkpt>
      <trkpt lat="43.29414" lon="6.01346">
        <ele>498</ele>
        <time>2014-05-29T07:38:04Z</time>
      </trkpt>
      <trkpt lat="43.29417" lon="6.01345">
        <ele>498</ele>
        <time>2014-05-29T07:38:05Z</time>
      </trkpt>
      <trkpt lat="43.29419" lon="6.01344">
        <ele>498.0234375</ele>
        <time>2014-05-29T07:38:06Z</time>
      </trkpt>
      <trkpt lat="43.29421" lon="6.01343">
        <ele>498.0625</ele>
        <time>2014-05-29T07:38:07Z</time>
      </trkpt>
      <trkpt lat="43.29423" lon="6.01341">
        <ele>498.09765625</ele>
        <time>2014-05-29T07:38:08Z</time>
      </trkpt>
      <trkpt lat="43.29426" lon="6.0134">
        <ele>498.12109375</ele>
        <time>2014-05-29T07:38:09Z</time>
      </trkpt>
      <trkpt lat="43.29456" lon="6.01304">
        <ele>498.77734375</ele>
        <time>2014-05-29T07:38:24Z</time>
      </trkpt>
      <trkpt lat="43.29478" lon="6.01255">
        <ele>499.359375</ele>
        <time>2014-05-29T07:38:39Z</time>
      </trkpt>
      <trkpt lat="43.29491" lon="6.01223">
        <ele>499.7734375</ele>
        <time>2014-05-29T07:38:49Z</time>
      </trkpt>
      <trkpt lat="43.29514" lon="6.01183">
        <ele>500.87109375</ele>
        <time>2014-05-29T07:39:03Z</time>
      </trkpt>
      <trkpt lat="43.29516" lon="6.0118">
        <ele>500.88671875</ele>
        <time>2014-05-29T07:39:04Z</time>
      </trkpt>
      <trkpt lat="43.29516" lon="6.01177">
        <ele>500.859375</ele>
        <time>2014-05-29T07:39:05Z</time>
      </trkpt>
      <trkpt lat="43.29517" lon="6.01173">
        <ele>500.8203125</ele>
        <time>2014-05-29T07:39:06Z</time>
      </trkpt>
      <trkpt lat="43.29523" lon="6.01154">
        <ele>500.78125</ele>
        <time>2014-05-29T07:39:12Z</time>
      </trkpt>
      <trkpt lat="43.29524" lon="6.01154">
        <ele>500.84765625</ele>
        <time>2014-05-29T07:39:13Z</time>
      </trkpt>
      <trkpt lat="43.29526" lon="6.01154">
        <ele>500.9140625</ele>
        <time>2014-05-29T07:39:14Z</time>
      </trkpt>
      <trkpt lat="43.29529" lon="6.01155">
        <ele>500.99609375</ele>
        <time>2014-05-29T07:39:15Z</time>
      </trkpt>
      <trkpt lat="43.29531" lon="6.01156">
        <ele>501.25</ele>
        <time>2014-05-29T07:39:16Z</time>
      </trkpt>
      <trkpt lat="43.29533" lon="6.01156">
        <ele>501.5</ele>
        <time>2014-05-29T07:39:17Z</time>
      </trkpt>
      <trkpt lat="43.29536" lon="6.01156">
        <ele>501.7421875</ele>
        <time>2014-05-29T07:39:18Z</time>
      </trkpt>
      <trkpt lat="43.29538" lon="6.01155">
        <ele>501.9765625</ele>
        <time>2014-05-29T07:39:19Z</time>
      </trkpt>
      <trkpt lat="43.2954" lon="6.01154">
        <ele>502.23046875</ele>
        <time>2014-05-29T07:39:20Z</time>
      </trkpt>
      <trkpt lat="43.29542" lon="6.01153">
        <ele>502.453125</ele>
        <time>2014-05-29T07:39:21Z</time>
      </trkpt>
      <trkpt lat="43.29544" lon="6.0115">
        <ele>502.65625</ele>
        <time>2014-05-29T07:39:22Z</time>
      </trkpt>
      <trkpt lat="43.29546" lon="6.01147">
        <ele>502.81640625</ele>
        <time>2014-05-29T07:39:23Z</time>
      </trkpt>
      <trkpt lat="43.29547" lon="6.01144">
        <ele>502.96875</ele>
        <time>2014-05-29T07:39:24Z</time>
      </trkpt>
      <trkpt lat="43.29549" lon="6.01141">
        <ele>503.16015625</ele>
        <time>2014-05-29T07:39:25Z</time>
      </trkpt>
      <trkpt lat="43.29551" lon="6.01139">
        <ele>503.3828125</ele>
        <time>2014-05-29T07:39:26Z</time>
      </trkpt>
      <trkpt lat="43.29553" lon="6.01137">
        <ele>503.6171875</ele>
        <time>2014-05-29T07:39:27Z</time>
      </trkpt>
      <trkpt lat="43.29555" lon="6.01135">
        <ele>503.81640625</ele>
        <time>2014-05-29T07:39:28Z</time>
      </trkpt>
      <trkpt lat="43.29557" lon="6.01133">
        <ele>503.9921875</ele>
        <time>2014-05-29T07:39:29Z</time>
      </trkpt>
      <trkpt lat="43.29574" lon="6.01103">
        <ele>505.0703125</ele>
        <time>2014-05-29T07:39:41Z</time>
      </trkpt>
      <trkpt lat="43.29594" lon="6.01086">
        <ele>507.796875</ele>
        <time>2014-05-29T07:39:52Z</time>
      </trkpt>
      <trkpt lat="43.29596" lon="6.01083">
        <ele>508.06640625</ele>
        <time>2014-05-29T07:39:53Z</time>
      </trkpt>
      <trkpt lat="43.29597" lon="6.01081">
        <ele>508.28125</ele>
        <time>2014-05-29T07:39:54Z</time>
      </trkpt>
      <trkpt lat="43.29599" lon="6.0108">
        <ele>508.515625</ele>
        <time>2014-05-29T07:39:55Z</time>
      </trkpt>
      <trkpt lat="43.29619" lon="6.01064">
        <ele>510.5</ele>
        <time>2014-05-29T07:40:07Z</time>
      </trkpt>
      <trkpt lat="43.29625" lon="6.01059">
        <ele>510.96484375</ele>
        <time>2014-05-29T07:40:12Z</time>
      </trkpt>
      <trkpt lat="43.29647" lon="6.01051">
        <ele>512.5234375</ele>
        <time>2014-05-29T07:40:24Z</time>
      </trkpt>
      <trkpt lat="43.29654" lon="6.01045">
        <ele>513.09375</ele>
        <time>2014-05-29T07:40:28Z</time>
      </trkpt>
      <trkpt lat="43.29655" lon="6.01043">
        <ele>513.19140625</ele>
        <time>2014-05-29T07:40:29Z</time>
      </trkpt>
      <trkpt lat="43.29655" lon="6.0104">
        <ele>513.28125</ele>
        <time>2014-05-29T07:40:30Z</time>
      </trkpt>
      <trkpt lat="43.29656" lon="6.01038">
        <ele>513.34375</ele>
        <time>2014-05-29T07:40:31Z</time>
      </trkpt>
      <trkpt lat="43.29656" lon="6.01036">
        <ele>513.38671875</ele>
        <time>2014-05-29T07:40:32Z</time>
      </trkpt>
      <trkpt lat="43.29656" lon="6.01034">
        <ele>513.41015625</ele>
        <time>2014-05-29T07:40:33Z</time>
      </trkpt>
      <trkpt lat="43.29641" lon="6.00998">
        <ele>513.08203125</ele>
        <time>2014-05-29T07:40:47Z</time>
      </trkpt>
      <trkpt lat="43.29631" lon="6.00968">
        <ele>513.66796875</ele>
        <time>2014-05-29T07:40:59Z</time>
      </trkpt>
      <trkpt lat="43.29622" lon="6.00937">
        <ele>514.4140625</ele>
        <time>2014-05-29T07:41:11Z</time>
      </trkpt>
      <trkpt lat="43.29615" lon="6.00899">
        <ele>515.05078125</ele>
        <time>2014-05-29T07:41:25Z</time>
      </trkpt>
      <trkpt lat="43.29621" lon="6.00884">
        <ele>515.30859375</ele>
        <time>2014-05-29T07:41:32Z</time>
      </trkpt>
      <trkpt lat="43.29621" lon="6.00881">
        <ele>515.30078125</ele>
        <time>2014-05-29T07:41:33Z</time>
      </trkpt>
      <trkpt lat="43.29621" lon="6.00879">
        <ele>515.2578125</ele>
        <time>2014-05-29T07:41:34Z</time>
      </trkpt>
      <trkpt lat="43.2962" lon="6.00876">
        <ele>515.20703125</ele>
        <time>2014-05-29T07:41:35Z</time>
      </trkpt>
      <trkpt lat="43.2962" lon="6.00874">
        <ele>515.171875</ele>
        <time>2014-05-29T07:41:36Z</time>
      </trkpt>
      <trkpt lat="43.29619" lon="6.00872">
        <ele>515.140625</ele>
        <time>2014-05-29T07:41:37Z</time>
      </trkpt>
      <trkpt lat="43.29618" lon="6.0087">
        <ele>515.109375</ele>
        <time>2014-05-29T07:41:38Z</time>
      </trkpt>
      <trkpt lat="43.29618" lon="6.00867">
        <ele>515.08203125</ele>
        <time>2014-05-29T07:41:39Z</time>
      </trkpt>
      <trkpt lat="43.29617" lon="6.00864">
        <ele>515.05859375</ele>
        <time>2014-05-29T07:41:40Z</time>
      </trkpt>
      <trkpt lat="43.29617" lon="6.00861">
        <ele>515.03515625</ele>
        <time>2014-05-29T07:41:41Z</time>
      </trkpt>
      <trkpt lat="43.29616" lon="6.00847">
        <ele>515</ele>
        <time>2014-05-29T07:41:45Z</time>
      </trkpt>
      <trkpt lat="43.29614" lon="6.00844">
        <ele>515</ele>
        <time>2014-05-29T07:41:46Z</time>
      </trkpt>
      <trkpt lat="43.29612" lon="6.00841">
        <ele>515</ele>
        <time>2014-05-29T07:41:47Z</time>
      </trkpt>
      <trkpt lat="43.2961" lon="6.00839">
        <ele>515</ele>
        <time>2014-05-29T07:41:48Z</time>
      </trkpt>
      <trkpt lat="43.29608" lon="6.00837">
        <ele>515</ele>
        <time>2014-05-29T07:41:49Z</time>
      </trkpt>
      <trkpt lat="43.29606" lon="6.00835">
        <ele>515</ele>
        <time>2014-05-29T07:41:50Z</time>
      </trkpt>
      <trkpt lat="43.29604" lon="6.00833">
        <ele>515</ele>
        <time>2014-05-29T07:41:51Z</time>
      </trkpt>
      <trkpt lat="43.29603" lon="6.00831">
        <ele>515</ele>
        <time>2014-05-29T07:41:52Z</time>
      </trkpt>
      <trkpt lat="43.29602" lon="6.00828">
        <ele>515</ele>
        <time>2014-05-29T07:41:53Z</time>
      </trkpt>
      <trkpt lat="43.29601" lon="6.00826">
        <ele>515</ele>
        <time>2014-05-29T07:41:54Z</time>
      </trkpt>
      <trkpt lat="43.29599" lon="6.00823">
        <ele>515</ele>
        <time>2014-05-29T07:41:55Z</time>
      </trkpt>
      <trkpt lat="43.29581" lon="6.00788">
        <ele>515.55859375</ele>
        <time>2014-05-29T07:42:07Z</time>
      </trkpt>
      <trkpt lat="43.29579" lon="6.00745">
        <ele>516.18359375</ele>
        <time>2014-05-29T07:42:19Z</time>
      </trkpt>
      <trkpt lat="43.29579" lon="6.00742">
        <ele>516.09765625</ele>
        <time>2014-05-29T07:42:20Z</time>
      </trkpt>
      <trkpt lat="43.29578" lon="6.00738">
        <ele>516.046875</ele>
        <time>2014-05-29T07:42:21Z</time>
      </trkpt>
      <trkpt lat="43.29577" lon="6.00736">
        <ele>516.01953125</ele>
        <time>2014-05-29T07:42:22Z</time>
      </trkpt>
      <trkpt lat="43.29558" lon="6.00716">
        <ele>516.91015625</ele>
        <time>2014-05-29T07:42:33Z</time>
      </trkpt>
      <trkpt lat="43.29534" lon="6.00691">
        <ele>518.58203125</ele>
        <time>2014-05-29T07:42:47Z</time>
      </trkpt>
      <trkpt lat="43.29526" lon="6.00684">
        <ele>518.7421875</ele>
        <time>2014-05-29T07:42:51Z</time>
      </trkpt>
      <trkpt lat="43.29525" lon="6.00681">
        <ele>518.640625</ele>
        <time>2014-05-29T07:43:00Z</time>
      </trkpt>
      <trkpt lat="43.29525" lon="6.0068">
        <ele>518.6640625</ele>
        <time>2014-05-29T07:43:01Z</time>
      </trkpt>
      <trkpt lat="43.29525" lon="6.00678">
        <ele>518.64453125</ele>
        <time>2014-05-29T07:43:02Z</time>
      </trkpt>
      <trkpt lat="43.29524" lon="6.00676">
        <ele>518.59765625</ele>
        <time>2014-05-29T07:43:03Z</time>
      </trkpt>
      <trkpt lat="43.29524" lon="6.00674">
        <ele>518.5703125</ele>
        <time>2014-05-29T07:43:04Z</time>
      </trkpt>
      <trkpt lat="43.29524" lon="6.00671">
        <ele>518.5703125</ele>
        <time>2014-05-29T07:43:05Z</time>
      </trkpt>
      <trkpt lat="43.29523" lon="6.00669">
        <ele>518.57421875</ele>
        <time>2014-05-29T07:43:06Z</time>
      </trkpt>
      <trkpt lat="43.29528" lon="6.00635">
        <ele>519.890625</ele>
        <time>2014-05-29T07:43:20Z</time>
      </trkpt>
      <trkpt lat="43.29529" lon="6.00633">
        <ele>519.98828125</ele>
        <time>2014-05-29T07:43:21Z</time>
      </trkpt>
      <trkpt lat="43.29529" lon="6.00631">
        <ele>519.9609375</ele>
        <time>2014-05-29T07:43:22Z</time>
      </trkpt>
      <trkpt lat="43.29529" lon="6.00628">
        <ele>519.96484375</ele>
        <time>2014-05-29T07:43:23Z</time>
      </trkpt>
      <trkpt lat="43.29529" lon="6.00626">
        <ele>519.99609375</ele>
        <time>2014-05-29T07:43:24Z</time>
      </trkpt>
      <trkpt lat="43.2953" lon="6.00593">
        <ele>520.33984375</ele>
        <time>2014-05-29T07:43:37Z</time>
      </trkpt>
      <trkpt lat="43.29529" lon="6.00582">
        <ele>520.79296875</ele>
        <time>2014-05-29T07:43:41Z</time>
      </trkpt>
      <trkpt lat="43.29528" lon="6.00581">
        <ele>520.94140625</ele>
        <time>2014-05-29T07:43:42Z</time>
      </trkpt>
      <trkpt lat="43.29527" lon="6.00579">
        <ele>521.04296875</ele>
        <time>2014-05-29T07:43:43Z</time>
      </trkpt>
      <trkpt lat="43.29525" lon="6.00578">
        <ele>521.14453125</ele>
        <time>2014-05-29T07:43:44Z</time>
      </trkpt>
      <trkpt lat="43.29523" lon="6.00578">
        <ele>521.25</ele>
        <time>2014-05-29T07:43:45Z</time>
      </trkpt>
      <trkpt lat="43.29522" lon="6.00577">
        <ele>521.34765625</ele>
        <time>2014-05-29T07:43:46Z</time>
      </trkpt>
      <trkpt lat="43.29513" lon="6.0057">
        <ele>522.2109375</ele>
        <time>2014-05-29T07:43:53Z</time>
      </trkpt>
      <trkpt lat="43.29511" lon="6.00568">
        <ele>522.39453125</ele>
        <time>2014-05-29T07:43:54Z</time>
      </trkpt>
      <trkpt lat="43.2951" lon="6.00566">
        <ele>522.54296875</ele>
        <time>2014-05-29T07:43:55Z</time>
      </trkpt>
      <trkpt lat="43.29509" lon="6.00565">
        <ele>522.65625</ele>
        <time>2014-05-29T07:43:56Z</time>
      </trkpt>
      <trkpt lat="43.29505" lon="6.00563">
        <ele>522.94921875</ele>
        <time>2014-05-29T07:44:00Z</time>
      </trkpt>
      <trkpt lat="43.29503" lon="6.00563">
        <ele>523.05078125</ele>
        <time>2014-05-29T07:44:01Z</time>
      </trkpt>
      <trkpt lat="43.29501" lon="6.00563">
        <ele>523.08203125</ele>
        <time>2014-05-29T07:44:02Z</time>
      </trkpt>
      <trkpt lat="43.29499" lon="6.00565">
        <ele>522.890625</ele>
        <time>2014-05-29T07:44:03Z</time>
      </trkpt>
      <trkpt lat="43.29497" lon="6.00566">
        <ele>522.6875</ele>
        <time>2014-05-29T07:44:04Z</time>
      </trkpt>
      <trkpt lat="43.29496" lon="6.00567">
        <ele>522.5</ele>
        <time>2014-05-29T07:44:05Z</time>
      </trkpt>
      <trkpt lat="43.29491" lon="6.00571">
        <ele>521.85546875</ele>
        <time>2014-05-29T07:44:09Z</time>
      </trkpt>
      <trkpt lat="43.29483" lon="6.00576">
        <ele>521.015625</ele>
        <time>2014-05-29T07:44:14Z</time>
      </trkpt>
      <trkpt lat="43.29478" lon="6.00582">
        <ele>519.94140625</ele>
        <time>2014-05-29T07:44:20Z</time>
      </trkpt>
      <trkpt lat="43.29477" lon="6.00584">
        <ele>519.6875</ele>
        <time>2014-05-29T07:44:21Z</time>
      </trkpt>
      <trkpt lat="43.29476" lon="6.00586">
        <ele>519.41796875</ele>
        <time>2014-05-29T07:44:22Z</time>
      </trkpt>
      <trkpt lat="43.29476" lon="6.00588">
        <ele>519.15625</ele>
        <time>2014-05-29T07:44:23Z</time>
      </trkpt>
      <trkpt lat="43.29476" lon="6.00591">
        <ele>518.8359375</ele>
        <time>2014-05-29T07:44:24Z</time>
      </trkpt>
      <trkpt lat="43.29475" lon="6.00598">
        <ele>518.0859375</ele>
        <time>2014-05-29T07:44:26Z</time>
      </trkpt>
      <trkpt lat="43.29471" lon="6.00609">
        <ele>516.4140625</ele>
        <time>2014-05-29T07:44:32Z</time>
      </trkpt>
      <trkpt lat="43.29469" lon="6.00614">
        <ele>515.7578125</ele>
        <time>2014-05-29T07:44:34Z</time>
      </trkpt>
      <trkpt lat="43.29468" lon="6.00616">
        <ele>515.36328125</ele>
        <time>2014-05-29T07:44:35Z</time>
      </trkpt>
      <trkpt lat="43.2946" lon="6.00628">
        <ele>512.76171875</ele>
        <time>2014-05-29T07:44:40Z</time>
      </trkpt>
      <trkpt lat="43.29449" lon="6.00645">
        <ele>509.421875</ele>
        <time>2014-05-29T07:44:45Z</time>
      </trkpt>
      <trkpt lat="43.29435" lon="6.00664">
        <ele>507.140625</ele>
        <time>2014-05-29T07:44:52Z</time>
      </trkpt>
      <trkpt lat="43.29414" lon="6.00698">
        <ele>503.3828125</ele>
        <time>2014-05-29T07:45:03Z</time>
      </trkpt>
      <trkpt lat="43.2941" lon="6.00713">
        <ele>502.296875</ele>
        <time>2014-05-29T07:45:12Z</time>
      </trkpt>
      <trkpt lat="43.29402" lon="6.00736">
        <ele>500.91796875</ele>
        <time>2014-05-29T07:45:23Z</time>
      </trkpt>
      <trkpt lat="43.2938" lon="6.00764">
        <ele>497.83984375</ele>
        <time>2014-05-29T07:45:33Z</time>
      </trkpt>
      <trkpt lat="43.29362" lon="6.00774">
        <ele>495.83984375</ele>
        <time>2014-05-29T07:45:39Z</time>
      </trkpt>
      <trkpt lat="43.29361" lon="6.00776">
        <ele>495.55859375</ele>
        <time>2014-05-29T07:45:40Z</time>
      </trkpt>
      <trkpt lat="43.29345" lon="6.00788">
        <ele>493.38671875</ele>
        <time>2014-05-29T07:45:47Z</time>
      </trkpt>
      <trkpt lat="43.29343" lon="6.0079">
        <ele>492.984375</ele>
        <time>2014-05-29T07:45:48Z</time>
      </trkpt>
      <trkpt lat="43.29341" lon="6.00793">
        <ele>492.53125</ele>
        <time>2014-05-29T07:45:49Z</time>
      </trkpt>
      <trkpt lat="43.29338" lon="6.00794">
        <ele>492.140625</ele>
        <time>2014-05-29T07:45:50Z</time>
      </trkpt>
      <trkpt lat="43.29336" lon="6.00796">
        <ele>491.7890625</ele>
        <time>2014-05-29T07:45:51Z</time>
      </trkpt>
      <trkpt lat="43.29335" lon="6.00798">
        <ele>491.37109375</ele>
        <time>2014-05-29T07:45:52Z</time>
      </trkpt>
      <trkpt lat="43.29334" lon="6.00801">
        <ele>490.95703125</ele>
        <time>2014-05-29T07:45:53Z</time>
      </trkpt>
      <trkpt lat="43.29334" lon="6.00803">
        <ele>490.6953125</ele>
        <time>2014-05-29T07:45:54Z</time>
      </trkpt>
      <trkpt lat="43.29335" lon="6.00805">
        <ele>490.50390625</ele>
        <time>2014-05-29T07:45:55Z</time>
      </trkpt>
      <trkpt lat="43.29335" lon="6.00809">
        <ele>490.1328125</ele>
        <time>2014-05-29T07:45:57Z</time>
      </trkpt>
      <trkpt lat="43.29334" lon="6.00812">
        <ele>489.71484375</ele>
        <time>2014-05-29T07:45:59Z</time>
      </trkpt>
      <trkpt lat="43.29335" lon="6.00814">
        <ele>489.5625</ele>
        <time>2014-05-29T07:46:00Z</time>
      </trkpt>
      <trkpt lat="43.29336" lon="6.00816">
        <ele>489.4296875</ele>
        <time>2014-05-29T07:46:01Z</time>
      </trkpt>
      <trkpt lat="43.29337" lon="6.00819">
        <ele>489.30078125</ele>
        <time>2014-05-29T07:46:02Z</time>
      </trkpt>
      <trkpt lat="43.29338" lon="6.00821">
        <ele>489.22265625</ele>
        <time>2014-05-29T07:46:03Z</time>
      </trkpt>
      <trkpt lat="43.29341" lon="6.00836">
        <ele>488.7109375</ele>
        <time>2014-05-29T07:46:08Z</time>
      </trkpt>
      <trkpt lat="43.2934" lon="6.00841">
        <ele>488.46484375</ele>
        <time>2014-05-29T07:46:10Z</time>
      </trkpt>
      <trkpt lat="43.29339" lon="6.00843">
        <ele>488.2265625</ele>
        <time>2014-05-29T07:46:12Z</time>
      </trkpt>
      <trkpt lat="43.29339" lon="6.00845">
        <ele>488.16796875</ele>
        <time>2014-05-29T07:46:13Z</time>
      </trkpt>
      <trkpt lat="43.29338" lon="6.00847">
        <ele>488</ele>
        <time>2014-05-29T07:46:14Z</time>
      </trkpt>
      <trkpt lat="43.29338" lon="6.00849">
        <ele>487.8046875</ele>
        <time>2014-05-29T07:46:15Z</time>
      </trkpt>
      <trkpt lat="43.29337" lon="6.00852">
        <ele>487.56640625</ele>
        <time>2014-05-29T07:46:16Z</time>
      </trkpt>
      <trkpt lat="43.29336" lon="6.00855">
        <ele>487.359375</ele>
        <time>2014-05-29T07:46:17Z</time>
      </trkpt>
      <trkpt lat="43.29336" lon="6.00859">
        <ele>487.2421875</ele>
        <time>2014-05-29T07:46:18Z</time>
      </trkpt>
      <trkpt lat="43.29334" lon="6.00862">
        <ele>487.0078125</ele>
        <time>2014-05-29T07:46:19Z</time>
      </trkpt>
      <trkpt lat="43.29333" lon="6.00866">
        <ele>486.84765625</ele>
        <time>2014-05-29T07:46:20Z</time>
      </trkpt>
      <trkpt lat="43.29332" lon="6.0087">
        <ele>486.69921875</ele>
        <time>2014-05-29T07:46:21Z</time>
      </trkpt>
      <trkpt lat="43.29331" lon="6.00874">
        <ele>486.609375</ele>
        <time>2014-05-29T07:46:22Z</time>
      </trkpt>
      <trkpt lat="43.2933" lon="6.00878">
        <ele>486.48828125</ele>
        <time>2014-05-29T07:46:23Z</time>
      </trkpt>
      <trkpt lat="43.29329" lon="6.00881">
        <ele>486.296875</ele>
        <time>2014-05-29T07:46:24Z</time>
      </trkpt>
      <trkpt lat="43.29315" lon="6.00911">
        <ele>485.12109375</ele>
        <time>2014-05-29T07:46:32Z</time>
      </trkpt>
      <trkpt lat="43.29312" lon="6.00911">
        <ele>484.8046875</ele>
        <time>2014-05-29T07:46:33Z</time>
      </trkpt>
      <trkpt lat="43.29306" lon="6.00913">
        <ele>484.01171875</ele>
        <time>2014-05-29T07:46:35Z</time>
      </trkpt>
      <trkpt lat="43.29288" lon="6.00922">
        <ele>481.38671875</ele>
        <time>2014-05-29T07:46:40Z</time>
      </trkpt>
      <trkpt lat="43.29284" lon="6.00924">
        <ele>480.71484375</ele>
        <time>2014-05-29T07:46:41Z</time>
      </trkpt>
      <trkpt lat="43.29279" lon="6.00925">
        <ele>480.05859375</ele>
        <time>2014-05-29T07:46:42Z</time>
      </trkpt>
      <trkpt lat="43.29273" lon="6.00926">
        <ele>479.0546875</ele>
        <time>2014-05-29T07:46:45Z</time>
      </trkpt>
      <trkpt lat="43.29261" lon="6.00929">
        <ele>477.28515625</ele>
        <time>2014-05-29T07:46:50Z</time>
      </trkpt>
      <trkpt lat="43.29258" lon="6.00928">
        <ele>476.7890625</ele>
        <time>2014-05-29T07:46:51Z</time>
      </trkpt>
      <trkpt lat="43.29236" lon="6.00921">
        <ele>472.953125</ele>
        <time>2014-05-29T07:46:59Z</time>
      </trkpt>
      <trkpt lat="43.2922" lon="6.00915">
        <ele>470.5078125</ele>
        <time>2014-05-29T07:47:04Z</time>
      </trkpt>
      <trkpt lat="43.29216" lon="6.00916">
        <ele>469.96484375</ele>
        <time>2014-05-29T07:47:05Z</time>
      </trkpt>
      <trkpt lat="43.29204" lon="6.00916">
        <ele>468.2109375</ele>
        <time>2014-05-29T07:47:08Z</time>
      </trkpt>
      <trkpt lat="43.29201" lon="6.00913">
        <ele>467.80859375</ele>
        <time>2014-05-29T07:47:09Z</time>
      </trkpt>
      <trkpt lat="43.29199" lon="6.00909">
        <ele>467.6796875</ele>
        <time>2014-05-29T07:47:10Z</time>
      </trkpt>
      <trkpt lat="43.29181" lon="6.00888">
        <ele>466.625</ele>
        <time>2014-05-29T07:47:17Z</time>
      </trkpt>
      <trkpt lat="43.29163" lon="6.00874">
        <ele>464.82421875</ele>
        <time>2014-05-29T07:47:30Z</time>
      </trkpt>
      <trkpt lat="43.2915" lon="6.00862">
        <ele>463.828125</ele>
        <time>2014-05-29T07:47:46Z</time>
      </trkpt>
      <trkpt lat="43.29144" lon="6.00858">
        <ele>463.4140625</ele>
        <time>2014-05-29T07:47:49Z</time>
      </trkpt>
      <trkpt lat="43.29134" lon="6.00872">
        <ele>462.23046875</ele>
        <time>2014-05-29T07:47:56Z</time>
      </trkpt>
      <trkpt lat="43.29108" lon="6.0089">
        <ele>460.66796875</ele>
        <time>2014-05-29T07:48:08Z</time>
      </trkpt>
      <trkpt lat="43.29091" lon="6.00911">
        <ele>460.00390625</ele>
        <time>2014-05-29T07:48:17Z</time>
      </trkpt>
      <trkpt lat="43.2909" lon="6.00912">
        <ele>460</ele>
        <time>2014-05-29T07:48:18Z</time>
      </trkpt>
      <trkpt lat="43.29089" lon="6.00911">
        <ele>460.00390625</ele>
        <time>2014-05-29T07:48:19Z</time>
      </trkpt>
      <trkpt lat="43.29088" lon="6.00909">
        <ele>460.01171875</ele>
        <time>2014-05-29T07:48:20Z</time>
      </trkpt>
      <trkpt lat="43.29088" lon="6.00907">
        <ele>460.01953125</ele>
        <time>2014-05-29T07:48:21Z</time>
      </trkpt>
      <trkpt lat="43.29088" lon="6.00905">
        <ele>460.03125</ele>
        <time>2014-05-29T07:48:22Z</time>
      </trkpt>
      <trkpt lat="43.29086" lon="6.00889">
        <ele>460.05078125</ele>
        <time>2014-05-29T07:48:30Z</time>
      </trkpt>
      <trkpt lat="43.29066" lon="6.00876">
        <ele>460.375</ele>
        <time>2014-05-29T07:48:42Z</time>
      </trkpt>
      <trkpt lat="43.29034" lon="6.00872">
        <ele>462.05859375</ele>
        <time>2014-05-29T07:48:56Z</time>
      </trkpt>
      <trkpt lat="43.29018" lon="6.00845">
        <ele>463.65234375</ele>
        <time>2014-05-29T07:49:08Z</time>
      </trkpt>
      <trkpt lat="43.29003" lon="6.00821">
        <ele>464.51171875</ele>
        <time>2014-05-29T07:49:19Z</time>
      </trkpt>
      <trkpt lat="43.29002" lon="6.0082">
        <ele>464.609375</ele>
        <time>2014-05-29T07:49:20Z</time>
      </trkpt>
      <trkpt lat="43.29" lon="6.00819">
        <ele>464.71875</ele>
        <time>2014-05-29T07:49:21Z</time>
      </trkpt>
      <trkpt lat="43.28998" lon="6.00818">
        <ele>464.83203125</ele>
        <time>2014-05-29T07:49:22Z</time>
      </trkpt>
      <trkpt lat="43.28996" lon="6.00818">
        <ele>464.94921875</ele>
        <time>2014-05-29T07:49:23Z</time>
      </trkpt>
      <trkpt lat="43.28995" lon="6.00817">
        <ele>465.0625</ele>
        <time>2014-05-29T07:49:24Z</time>
      </trkpt>
      <trkpt lat="43.28993" lon="6.00817">
        <ele>465.1484375</ele>
        <time>2014-05-29T07:49:25Z</time>
      </trkpt>
      <trkpt lat="43.28991" lon="6.00817">
        <ele>465.1796875</ele>
        <time>2014-05-29T07:49:26Z</time>
      </trkpt>
      <trkpt lat="43.28989" lon="6.00817">
        <ele>465.25</ele>
        <time>2014-05-29T07:49:27Z</time>
      </trkpt>
      <trkpt lat="43.28976" lon="6.0081">
        <ele>466.2578125</ele>
        <time>2014-05-29T07:49:34Z</time>
      </trkpt>
      <trkpt lat="43.28974" lon="6.0081">
        <ele>466.2890625</ele>
        <time>2014-05-29T07:49:35Z</time>
      </trkpt>
      <trkpt lat="43.28972" lon="6.00811">
        <ele>466.27734375</ele>
        <time>2014-05-29T07:49:36Z</time>
      </trkpt>
      <trkpt lat="43.28937" lon="6.00807">
        <ele>466.78125</ele>
        <time>2014-05-29T07:49:51Z</time>
      </trkpt>
      <trkpt lat="43.28925" lon="6.0081">
        <ele>466.66015625</ele>
        <time>2014-05-29T07:49:56Z</time>
      </trkpt>
      <trkpt lat="43.28914" lon="6.00808">
        <ele>466.78125</ele>
        <time>2014-05-29T07:50:01Z</time>
      </trkpt>
      <trkpt lat="43.2888" lon="6.00801">
        <ele>466.6171875</ele>
        <time>2014-05-29T07:50:11Z</time>
      </trkpt>
      <trkpt lat="43.28842" lon="6.00796">
        <ele>464.234375</ele>
        <time>2014-05-29T07:50:22Z</time>
      </trkpt>
      <trkpt lat="43.28835" lon="6.00789">
        <ele>463.16015625</ele>
        <time>2014-05-29T07:50:25Z</time>
      </trkpt>
      <trkpt lat="43.28833" lon="6.00786">
        <ele>462.7734375</ele>
        <time>2014-05-29T07:50:26Z</time>
      </trkpt>
      <trkpt lat="43.28801" lon="6.00759">
        <ele>459.6953125</ele>
        <time>2014-05-29T07:50:36Z</time>
      </trkpt>
      <trkpt lat="43.28784" lon="6.00751">
        <ele>458.48046875</ele>
        <time>2014-05-29T07:50:41Z</time>
      </trkpt>
      <trkpt lat="43.28779" lon="6.00748">
        <ele>458.12109375</ele>
        <time>2014-05-29T07:50:42Z</time>
      </trkpt>
      <trkpt lat="43.28776" lon="6.00745">
        <ele>457.7421875</ele>
        <time>2014-05-29T07:50:43Z</time>
      </trkpt>
      <trkpt lat="43.28763" lon="6.00736">
        <ele>456.33203125</ele>
        <time>2014-05-29T07:50:47Z</time>
      </trkpt>
      <trkpt lat="43.2876" lon="6.00736">
        <ele>456.0703125</ele>
        <time>2014-05-29T07:50:48Z</time>
      </trkpt>
      <trkpt lat="43.28721" lon="6.00751">
        <ele>454.27734375</ele>
        <time>2014-05-29T07:50:59Z</time>
      </trkpt>
      <trkpt lat="43.28718" lon="6.00751">
        <ele>454.00390625</ele>
        <time>2014-05-29T07:51:00Z</time>
      </trkpt>
      <trkpt lat="43.28714" lon="6.00749">
        <ele>453.671875</ele>
        <time>2014-05-29T07:51:01Z</time>
      </trkpt>
      <trkpt lat="43.28705" lon="6.00743">
        <ele>452.53125</ele>
        <time>2014-05-29T07:51:04Z</time>
      </trkpt>
      <trkpt lat="43.28703" lon="6.0074">
        <ele>452.140625</ele>
        <time>2014-05-29T07:51:05Z</time>
      </trkpt>
      <trkpt lat="43.28684" lon="6.00718">
        <ele>450.05078125</ele>
        <time>2014-05-29T07:51:14Z</time>
      </trkpt>
      <trkpt lat="43.28681" lon="6.0072">
        <ele>450.13671875</ele>
        <time>2014-05-29T07:51:15Z</time>
      </trkpt>
      <trkpt lat="43.28679" lon="6.00722">
        <ele>450.234375</ele>
        <time>2014-05-29T07:51:16Z</time>
      </trkpt>
      <trkpt lat="43.28678" lon="6.00725">
        <ele>450.37109375</ele>
        <time>2014-05-29T07:51:17Z</time>
      </trkpt>
      <trkpt lat="43.28678" lon="6.00728">
        <ele>450.53515625</ele>
        <time>2014-05-29T07:51:18Z</time>
      </trkpt>
      <trkpt lat="43.28677" lon="6.00732">
        <ele>450.6953125</ele>
        <time>2014-05-29T07:51:19Z</time>
      </trkpt>
      <trkpt lat="43.2867" lon="6.00747">
        <ele>451.1796875</ele>
        <time>2014-05-29T07:51:24Z</time>
      </trkpt>
      <trkpt lat="43.28655" lon="6.00776">
        <ele>451.171875</ele>
        <time>2014-05-29T07:51:35Z</time>
      </trkpt>
      <trkpt lat="43.28649" lon="6.00786">
        <ele>450.859375</ele>
        <time>2014-05-29T07:51:38Z</time>
      </trkpt>
      <trkpt lat="43.28643" lon="6.0079">
        <ele>450.3515625</ele>
        <time>2014-05-29T07:51:40Z</time>
      </trkpt>
      <trkpt lat="43.28638" lon="6.00812">
        <ele>450.2109375</ele>
        <time>2014-05-29T07:51:46Z</time>
      </trkpt>
      <trkpt lat="43.28629" lon="6.00849">
        <ele>449.8203125</ele>
        <time>2014-05-29T07:51:57Z</time>
      </trkpt>
      <trkpt lat="43.28636" lon="6.00881">
        <ele>450.55078125</ele>
        <time>2014-05-29T07:52:06Z</time>
      </trkpt>
      <trkpt lat="43.28644" lon="6.00893">
        <ele>451.1015625</ele>
        <time>2014-05-29T07:52:12Z</time>
      </trkpt>
      <trkpt lat="43.28647" lon="6.00898">
        <ele>451.26171875</ele>
        <time>2014-05-29T07:52:15Z</time>
      </trkpt>
      <trkpt lat="43.2865" lon="6.00918">
        <ele>450.8046875</ele>
        <time>2014-05-29T07:52:23Z</time>
      </trkpt>
      <trkpt lat="43.28651" lon="6.00934">
        <ele>450.390625</ele>
        <time>2014-05-29T07:52:34Z</time>
      </trkpt>
      <trkpt lat="43.28651" lon="6.00936">
        <ele>450.28515625</ele>
        <time>2014-05-29T07:52:38Z</time>
      </trkpt>
      <trkpt lat="43.28654" lon="6.00952">
        <ele>450</ele>
        <time>2014-05-29T07:52:49Z</time>
      </trkpt>
      <trkpt lat="43.28652" lon="6.00961">
        <ele>449.62890625</ele>
        <time>2014-05-29T07:52:57Z</time>
      </trkpt>
      <trkpt lat="43.28645" lon="6.00973">
        <ele>449.1328125</ele>
        <time>2014-05-29T07:53:03Z</time>
      </trkpt>
      <trkpt lat="43.28638" lon="6.00985">
        <ele>449</ele>
        <time>2014-05-29T07:53:19Z</time>
      </trkpt>
      <trkpt lat="43.28637" lon="6.00985">
        <ele>449</ele>
        <time>2014-05-29T07:53:21Z</time>
      </trkpt>
      <trkpt lat="43.28615" lon="6.00988">
        <ele>449</ele>
        <time>2014-05-29T07:53:34Z</time>
      </trkpt>
      <trkpt lat="43.28612" lon="6.00989">
        <ele>448.9921875</ele>
        <time>2014-05-29T07:53:36Z</time>
      </trkpt>
      <trkpt lat="43.28606" lon="6.0099">
        <ele>448.95703125</ele>
        <time>2014-05-29T07:53:39Z</time>
      </trkpt>
      <trkpt lat="43.28603" lon="6.00991">
        <ele>448.94921875</ele>
        <time>2014-05-29T07:53:40Z</time>
      </trkpt>
      <trkpt lat="43.28599" lon="6.00992">
        <ele>448.953125</ele>
        <time>2014-05-29T07:53:41Z</time>
      </trkpt>
      <trkpt lat="43.28595" lon="6.00993">
        <ele>448.95703125</ele>
        <time>2014-05-29T07:53:42Z</time>
      </trkpt>
      <trkpt lat="43.28592" lon="6.00994">
        <ele>448.96484375</ele>
        <time>2014-05-29T07:53:43Z</time>
      </trkpt>
      <trkpt lat="43.28567" lon="6.00975">
        <ele>448.09765625</ele>
        <time>2014-05-29T07:53:53Z</time>
      </trkpt>
      <trkpt lat="43.28531" lon="6.0096">
        <ele>447.984375</ele>
        <time>2014-05-29T07:54:06Z</time>
      </trkpt>
      <trkpt lat="43.28528" lon="6.00959">
        <ele>448</ele>
        <time>2014-05-29T07:54:07Z</time>
      </trkpt>
      <trkpt lat="43.28525" lon="6.00958">
        <ele>448</ele>
        <time>2014-05-29T07:54:08Z</time>
      </trkpt>
      <trkpt lat="43.28522" lon="6.00956">
        <ele>448</ele>
        <time>2014-05-29T07:54:09Z</time>
      </trkpt>
      <trkpt lat="43.2852" lon="6.00954">
        <ele>448</ele>
        <time>2014-05-29T07:54:10Z</time>
      </trkpt>
      <trkpt lat="43.28518" lon="6.00951">
        <ele>448</ele>
        <time>2014-05-29T07:54:11Z</time>
      </trkpt>
      <trkpt lat="43.28516" lon="6.00949">
        <ele>448</ele>
        <time>2014-05-29T07:54:12Z</time>
      </trkpt>
      <trkpt lat="43.2849" lon="6.00907">
        <ele>447.9140625</ele>
        <time>2014-05-29T07:54:26Z</time>
      </trkpt>
      <trkpt lat="43.28459" lon="6.00876">
        <ele>447.859375</ele>
        <time>2014-05-29T07:54:42Z</time>
      </trkpt>
      <trkpt lat="43.28441" lon="6.00864">
        <ele>448.17578125</ele>
        <time>2014-05-29T07:54:54Z</time>
      </trkpt>
      <trkpt lat="43.28441" lon="6.00866">
        <ele>448.19140625</ele>
        <time>2014-05-29T07:54:55Z</time>
      </trkpt>
      <trkpt lat="43.2844" lon="6.00869">
        <ele>448.21484375</ele>
        <time>2014-05-29T07:54:56Z</time>
      </trkpt>
      <trkpt lat="43.28439" lon="6.00871">
        <ele>448.24609375</ele>
        <time>2014-05-29T07:54:57Z</time>
      </trkpt>
      <trkpt lat="43.28438" lon="6.00874">
        <ele>448.2734375</ele>
        <time>2014-05-29T07:54:58Z</time>
      </trkpt>
      <trkpt lat="43.28437" lon="6.00877">
        <ele>448.3125</ele>
        <time>2014-05-29T07:54:59Z</time>
      </trkpt>
      <trkpt lat="43.28436" lon="6.0088">
        <ele>448.34375</ele>
        <time>2014-05-29T07:55:00Z</time>
      </trkpt>
      <trkpt lat="43.28436" lon="6.00883">
        <ele>448.37109375</ele>
        <time>2014-05-29T07:55:01Z</time>
      </trkpt>
      <trkpt lat="43.28431" lon="6.00916">
        <ele>449.54296875</ele>
        <time>2014-05-29T07:55:11Z</time>
      </trkpt>
      <trkpt lat="43.2843" lon="6.00918">
        <ele>449.58984375</ele>
        <time>2014-05-29T07:55:12Z</time>
      </trkpt>
      <trkpt lat="43.28428" lon="6.0092">
        <ele>449.63671875</ele>
        <time>2014-05-29T07:55:13Z</time>
      </trkpt>
      <trkpt lat="43.28416" lon="6.00954">
        <ele>450.046875</ele>
        <time>2014-05-29T07:55:25Z</time>
      </trkpt>
      <trkpt lat="43.28405" lon="6.01001">
        <ele>450.6953125</ele>
        <time>2014-05-29T07:55:41Z</time>
      </trkpt>
      <trkpt lat="43.28394" lon="6.01044">
        <ele>453.296875</ele>
        <time>2014-05-29T07:55:56Z</time>
      </trkpt>
      <trkpt lat="43.28391" lon="6.01052">
        <ele>454.12109375</ele>
        <time>2014-05-29T07:56:00Z</time>
      </trkpt>
      <trkpt lat="43.28391" lon="6.01054">
        <ele>454.2578125</ele>
        <time>2014-05-29T07:56:01Z</time>
      </trkpt>
      <trkpt lat="43.28391" lon="6.01056">
        <ele>454.37890625</ele>
        <time>2014-05-29T07:56:02Z</time>
      </trkpt>
      <trkpt lat="43.28392" lon="6.01059">
        <ele>454.5390625</ele>
        <time>2014-05-29T07:56:03Z</time>
      </trkpt>
      <trkpt lat="43.28392" lon="6.01061">
        <ele>454.65625</ele>
        <time>2014-05-29T07:56:04Z</time>
      </trkpt>
      <trkpt lat="43.28393" lon="6.01063">
        <ele>454.75390625</ele>
        <time>2014-05-29T07:56:05Z</time>
      </trkpt>
      <trkpt lat="43.28393" lon="6.01065">
        <ele>454.87890625</ele>
        <time>2014-05-29T07:56:06Z</time>
      </trkpt>
      <trkpt lat="43.28393" lon="6.01068">
        <ele>455.02734375</ele>
        <time>2014-05-29T07:56:07Z</time>
      </trkpt>
      <trkpt lat="43.28394" lon="6.0108">
        <ele>455.9609375</ele>
        <time>2014-05-29T07:56:12Z</time>
      </trkpt>
      <trkpt lat="43.28393" lon="6.01082">
        <ele>456.1796875</ele>
        <time>2014-05-29T07:56:13Z</time>
      </trkpt>
      <trkpt lat="43.28392" lon="6.01083">
        <ele>456.39453125</ele>
        <time>2014-05-29T07:56:14Z</time>
      </trkpt>
      <trkpt lat="43.28392" lon="6.01085">
        <ele>456.65234375</ele>
        <time>2014-05-29T07:56:15Z</time>
      </trkpt>
      <trkpt lat="43.28391" lon="6.01087">
        <ele>456.875</ele>
        <time>2014-05-29T07:56:16Z</time>
      </trkpt>
      <trkpt lat="43.2839" lon="6.01089">
        <ele>457.125</ele>
        <time>2014-05-29T07:56:17Z</time>
      </trkpt>
      <trkpt lat="43.28389" lon="6.0109">
        <ele>457.34765625</ele>
        <time>2014-05-29T07:56:18Z</time>
      </trkpt>
      <trkpt lat="43.28389" lon="6.01092">
        <ele>457.59375</ele>
        <time>2014-05-29T07:56:19Z</time>
      </trkpt>
      <trkpt lat="43.28388" lon="6.01094">
        <ele>457.84375</ele>
        <time>2014-05-29T07:56:20Z</time>
      </trkpt>
      <trkpt lat="43.28378" lon="6.01109">
        <ele>459.84375</ele>
        <time>2014-05-29T07:56:32Z</time>
      </trkpt>
      <trkpt lat="43.28377" lon="6.0111">
        <ele>459.98828125</ele>
        <time>2014-05-29T07:56:33Z</time>
      </trkpt>
      <trkpt lat="43.28376" lon="6.01111">
        <ele>460.16015625</ele>
        <time>2014-05-29T07:56:34Z</time>
      </trkpt>
      <trkpt lat="43.28371" lon="6.01116">
        <ele>460.96484375</ele>
        <time>2014-05-29T07:56:39Z</time>
      </trkpt>
      <trkpt lat="43.28371" lon="6.01117">
        <ele>461.18359375</ele>
        <time>2014-05-29T07:56:40Z</time>
      </trkpt>
      <trkpt lat="43.2837" lon="6.01119">
        <ele>461.4296875</ele>
        <time>2014-05-29T07:56:41Z</time>
      </trkpt>
      <trkpt lat="43.28369" lon="6.01132">
        <ele>463.29296875</ele>
        <time>2014-05-29T07:56:48Z</time>
      </trkpt>
      <trkpt lat="43.28369" lon="6.01133">
        <ele>463.53125</ele>
        <time>2014-05-29T07:56:49Z</time>
      </trkpt>
      <trkpt lat="43.28369" lon="6.01135">
        <ele>463.73046875</ele>
        <time>2014-05-29T07:56:50Z</time>
      </trkpt>
      <trkpt lat="43.28369" lon="6.01145">
        <ele>464.7734375</ele>
        <time>2014-05-29T07:57:02Z</time>
      </trkpt>
      <trkpt lat="43.28363" lon="6.01152">
        <ele>465.96875</ele>
        <time>2014-05-29T07:57:15Z</time>
      </trkpt>
      <trkpt lat="43.28357" lon="6.01165">
        <ele>467.796875</ele>
        <time>2014-05-29T07:57:31Z</time>
      </trkpt>
      <trkpt lat="43.28355" lon="6.01179">
        <ele>469.52734375</ele>
        <time>2014-05-29T07:57:43Z</time>
      </trkpt>
      <trkpt lat="43.28354" lon="6.01189">
        <ele>470.6171875</ele>
        <time>2014-05-29T07:58:00Z</time>
      </trkpt>
      <trkpt lat="43.28354" lon="6.01191">
        <ele>470.80859375</ele>
        <time>2014-05-29T07:58:04Z</time>
      </trkpt>
      <trkpt lat="43.28354" lon="6.01193">
        <ele>470.90625</ele>
        <time>2014-05-29T07:58:05Z</time>
      </trkpt>
      <trkpt lat="43.28354" lon="6.01195">
        <ele>471.05078125</ele>
        <time>2014-05-29T07:58:06Z</time>
      </trkpt>
      <trkpt lat="43.28354" lon="6.01198">
        <ele>471.27734375</ele>
        <time>2014-05-29T07:58:08Z</time>
      </trkpt>
      <trkpt lat="43.28351" lon="6.01202">
        <ele>471.75</ele>
        <time>2014-05-29T07:58:11Z</time>
      </trkpt>
      <trkpt lat="43.2835" lon="6.01206">
        <ele>472.109375</ele>
        <time>2014-05-29T07:58:13Z</time>
      </trkpt>
      <trkpt lat="43.28349" lon="6.01207">
        <ele>472.27734375</ele>
        <time>2014-05-29T07:58:14Z</time>
      </trkpt>
      <trkpt lat="43.28348" lon="6.01209">
        <ele>472.46484375</ele>
        <time>2014-05-29T07:58:15Z</time>
      </trkpt>
      <trkpt lat="43.28346" lon="6.0122">
        <ele>473.4765625</ele>
        <time>2014-05-29T07:58:22Z</time>
      </trkpt>
      <trkpt lat="43.28344" lon="6.01234">
        <ele>474.58984375</ele>
        <time>2014-05-29T07:58:35Z</time>
      </trkpt>
      <trkpt lat="43.28342" lon="6.01233">
        <ele>474.65625</ele>
        <time>2014-05-29T07:58:51Z</time>
      </trkpt>
      <trkpt lat="43.28342" lon="6.0123">
        <ele>474.41796875</ele>
        <time>2014-05-29T07:59:26Z</time>
      </trkpt>
      <trkpt lat="43.28342" lon="6.0123">
        <ele>474.41796875</ele>
        <time>2014-05-29T07:59:27Z</time>
      </trkpt>
      <trkpt lat="43.28342" lon="6.01234">
        <ele>474.71875</ele>
        <time>2014-05-29T07:59:50Z</time>
      </trkpt>
      <trkpt lat="43.28338" lon="6.01251">
        <ele>476.00390625</ele>
        <time>2014-05-29T08:00:03Z</time>
      </trkpt>
      <trkpt lat="43.28328" lon="6.01274">
        <ele>477.25</ele>
        <time>2014-05-29T08:00:18Z</time>
      </trkpt>
      <trkpt lat="43.28319" lon="6.01297">
        <ele>478.08984375</ele>
        <time>2014-05-29T08:00:33Z</time>
      </trkpt>
      <trkpt lat="43.28306" lon="6.01319">
        <ele>478.3828125</ele>
        <time>2014-05-29T08:00:49Z</time>
      </trkpt>
      <trkpt lat="43.28302" lon="6.01361">
        <ele>477.015625</ele>
        <time>2014-05-29T08:01:05Z</time>
      </trkpt>
      <trkpt lat="43.28295" lon="6.01411">
        <ele>474.91796875</ele>
        <time>2014-05-29T08:01:17Z</time>
      </trkpt>
      <trkpt lat="43.2829" lon="6.01435">
        <ele>474.375</ele>
        <time>2014-05-29T08:01:22Z</time>
      </trkpt>
      <trkpt lat="43.28289" lon="6.01441">
        <ele>474.3828125</ele>
        <time>2014-05-29T08:01:23Z</time>
      </trkpt>
      <trkpt lat="43.28287" lon="6.01447">
        <ele>474.671875</ele>
        <time>2014-05-29T08:01:24Z</time>
      </trkpt>
      <trkpt lat="43.28284" lon="6.01452">
        <ele>475.03515625</ele>
        <time>2014-05-29T08:01:25Z</time>
      </trkpt>
      <trkpt lat="43.28282" lon="6.01457">
        <ele>475.4609375</ele>
        <time>2014-05-29T08:01:26Z</time>
      </trkpt>
      <trkpt lat="43.28279" lon="6.01463">
        <ele>475.8828125</ele>
        <time>2014-05-29T08:01:27Z</time>
      </trkpt>
      <trkpt lat="43.28272" lon="6.01479">
        <ele>476.98046875</ele>
        <time>2014-05-29T08:01:32Z</time>
      </trkpt>
      <trkpt lat="43.28272" lon="6.01481">
        <ele>477.0703125</ele>
        <time>2014-05-29T08:01:33Z</time>
      </trkpt>
      <trkpt lat="43.28271" lon="6.01483">
        <ele>477.203125</ele>
        <time>2014-05-29T08:01:34Z</time>
      </trkpt>
      <trkpt lat="43.2827" lon="6.01485">
        <ele>477.3203125</ele>
        <time>2014-05-29T08:01:35Z</time>
      </trkpt>
      <trkpt lat="43.2827" lon="6.01487">
        <ele>477.42578125</ele>
        <time>2014-05-29T08:01:36Z</time>
      </trkpt>
      <trkpt lat="43.2827" lon="6.0149">
        <ele>477.5</ele>
        <time>2014-05-29T08:01:37Z</time>
      </trkpt>
      <trkpt lat="43.2827" lon="6.01492">
        <ele>477.57421875</ele>
        <time>2014-05-29T08:01:38Z</time>
      </trkpt>
      <trkpt lat="43.28293" lon="6.01513">
        <ele>477.3203125</ele>
        <time>2014-05-29T08:01:51Z</time>
      </trkpt>
      <trkpt lat="43.28299" lon="6.01516">
        <ele>477.109375</ele>
        <time>2014-05-29T08:01:53Z</time>
      </trkpt>
      <trkpt lat="43.28336" lon="6.01533">
        <ele>475.01953125</ele>
        <time>2014-05-29T08:02:06Z</time>
      </trkpt>
      <trkpt lat="43.28355" lon="6.01552">
        <ele>474.95703125</ele>
        <time>2014-05-29T08:02:18Z</time>
      </trkpt>
      <trkpt lat="43.2839" lon="6.0157">
        <ele>473.47265625</ele>
        <time>2014-05-29T08:02:29Z</time>
      </trkpt>
      <trkpt lat="43.2842" lon="6.01589">
        <ele>473.08203125</ele>
        <time>2014-05-29T08:02:38Z</time>
      </trkpt>
      <trkpt lat="43.28445" lon="6.01615">
        <ele>474.0390625</ele>
        <time>2014-05-29T08:02:49Z</time>
      </trkpt>
      <trkpt lat="43.28469" lon="6.01636">
        <ele>476.37890625</ele>
        <time>2014-05-29T08:03:01Z</time>
      </trkpt>
      <trkpt lat="43.28494" lon="6.01654">
        <ele>478.57421875</ele>
        <time>2014-05-29T08:03:13Z</time>
      </trkpt>
      <trkpt lat="43.28495" lon="6.01655">
        <ele>478.66015625</ele>
        <time>2014-05-29T08:03:14Z</time>
      </trkpt>
      <trkpt lat="43.28503" lon="6.01666">
        <ele>479.40625</ele>
        <time>2014-05-29T08:03:20Z</time>
      </trkpt>
      <trkpt lat="43.28504" lon="6.01668">
        <ele>479.54296875</ele>
        <time>2014-05-29T08:03:21Z</time>
      </trkpt>
      <trkpt lat="43.28506" lon="6.01669">
        <ele>479.68359375</ele>
        <time>2014-05-29T08:03:22Z</time>
      </trkpt>
      <trkpt lat="43.28507" lon="6.01671">
        <ele>479.8203125</ele>
        <time>2014-05-29T08:03:23Z</time>
      </trkpt>
      <trkpt lat="43.28508" lon="6.01673">
        <ele>479.953125</ele>
        <time>2014-05-29T08:03:24Z</time>
      </trkpt>
      <trkpt lat="43.28526" lon="6.01688">
        <ele>480.94140625</ele>
        <time>2014-05-29T08:03:36Z</time>
      </trkpt>
      <trkpt lat="43.28546" lon="6.017">
        <ele>480.75390625</ele>
        <time>2014-05-29T08:03:50Z</time>
      </trkpt>
      <trkpt lat="43.28552" lon="6.0171">
        <ele>480.3828125</ele>
        <time>2014-05-29T08:03:58Z</time>
      </trkpt>
      <trkpt lat="43.28553" lon="6.0171">
        <ele>480.328125</ele>
        <time>2014-05-29T08:03:59Z</time>
      </trkpt>
      <trkpt lat="43.28554" lon="6.01712">
        <ele>480.2578125</ele>
        <time>2014-05-29T08:04:00Z</time>
      </trkpt>
      <trkpt lat="43.28555" lon="6.01713">
        <ele>480.19140625</ele>
        <time>2014-05-29T08:04:01Z</time>
      </trkpt>
      <trkpt lat="43.28556" lon="6.01714">
        <ele>480.12890625</ele>
        <time>2014-05-29T08:04:02Z</time>
      </trkpt>
      <trkpt lat="43.28558" lon="6.01715">
        <ele>480.08984375</ele>
        <time>2014-05-29T08:04:03Z</time>
      </trkpt>
      <trkpt lat="43.28559" lon="6.01716">
        <ele>480.08984375</ele>
        <time>2014-05-29T08:04:04Z</time>
      </trkpt>
      <trkpt lat="43.28561" lon="6.01718">
        <ele>480.1796875</ele>
        <time>2014-05-29T08:04:05Z</time>
      </trkpt>
      <trkpt lat="43.28562" lon="6.01719">
        <ele>480.34765625</ele>
        <time>2014-05-29T08:04:06Z</time>
      </trkpt>
      <trkpt lat="43.28566" lon="6.01725">
        <ele>480.84765625</ele>
        <time>2014-05-29T08:04:09Z</time>
      </trkpt>
      <trkpt lat="43.28568" lon="6.01727">
        <ele>480.984375</ele>
        <time>2014-05-29T08:04:10Z</time>
      </trkpt>
      <trkpt lat="43.28594" lon="6.0176">
        <ele>481.859375</ele>
        <time>2014-05-29T08:04:28Z</time>
      </trkpt>
      <trkpt lat="43.28618" lon="6.01789">
        <ele>483.00390625</ele>
        <time>2014-05-29T08:04:41Z</time>
      </trkpt>
      <trkpt lat="43.28626" lon="6.01801">
        <ele>483.57421875</ele>
        <time>2014-05-29T08:04:47Z</time>
      </trkpt>
      <trkpt lat="43.28627" lon="6.01803">
        <ele>483.65234375</ele>
        <time>2014-05-29T08:04:48Z</time>
      </trkpt>
      <trkpt lat="43.28629" lon="6.01804">
        <ele>483.68359375</ele>
        <time>2014-05-29T08:04:49Z</time>
      </trkpt>
      <trkpt lat="43.28654" lon="6.01818">
        <ele>483.82421875</ele>
        <time>2014-05-29T08:05:00Z</time>
      </trkpt>
      <trkpt lat="43.28678" lon="6.01839">
        <ele>484.828125</ele>
        <time>2014-05-29T08:05:13Z</time>
      </trkpt>
      <trkpt lat="43.28686" lon="6.01868">
        <ele>487.24609375</ele>
        <time>2014-05-29T08:05:27Z</time>
      </trkpt>
      <trkpt lat="43.28674" lon="6.0189">
        <ele>490.41015625</ele>
        <time>2014-05-29T08:05:41Z</time>
      </trkpt>
      <trkpt lat="43.28656" lon="6.01903">
        <ele>493.71484375</ele>
        <time>2014-05-29T08:05:56Z</time>
      </trkpt>
      <trkpt lat="43.28637" lon="6.01913">
        <ele>496.3359375</ele>
        <time>2014-05-29T08:06:11Z</time>
      </trkpt>
      <trkpt lat="43.2862" lon="6.01924">
        <ele>499.06640625</ele>
        <time>2014-05-29T08:06:26Z</time>
      </trkpt>
      <trkpt lat="43.28605" lon="6.0194">
        <ele>503.3203125</ele>
        <time>2014-05-29T08:06:40Z</time>
      </trkpt>
      <trkpt lat="43.28594" lon="6.01953">
        <ele>506.23828125</ele>
        <time>2014-05-29T08:06:50Z</time>
      </trkpt>
      <trkpt lat="43.28594" lon="6.01954">
        <ele>506.54296875</ele>
        <time>2014-05-29T08:06:51Z</time>
      </trkpt>
      <trkpt lat="43.28592" lon="6.01956">
        <ele>506.81640625</ele>
        <time>2014-05-29T08:06:52Z</time>
      </trkpt>
      <trkpt lat="43.28591" lon="6.01957">
        <ele>507.04296875</ele>
        <time>2014-05-29T08:06:53Z</time>
      </trkpt>
      <trkpt lat="43.2859" lon="6.01958">
        <ele>507.234375</ele>
        <time>2014-05-29T08:06:54Z</time>
      </trkpt>
      <trkpt lat="43.28588" lon="6.0196">
        <ele>507.61328125</ele>
        <time>2014-05-29T08:06:56Z</time>
      </trkpt>
      <trkpt lat="43.28583" lon="6.01968">
        <ele>509.19140625</ele>
        <time>2014-05-29T08:07:02Z</time>
      </trkpt>
      <trkpt lat="43.28569" lon="6.01986">
        <ele>512.71484375</ele>
        <time>2014-05-29T08:07:17Z</time>
      </trkpt>
      <trkpt lat="43.28558" lon="6.01998">
        <ele>514.70703125</ele>
        <time>2014-05-29T08:07:27Z</time>
      </trkpt>
      <trkpt lat="43.28557" lon="6.01999">
        <ele>514.85546875</ele>
        <time>2014-05-29T08:07:28Z</time>
      </trkpt>
      <trkpt lat="43.28547" lon="6.02009">
        <ele>515.5546875</ele>
        <time>2014-05-29T08:07:37Z</time>
      </trkpt>
      <trkpt lat="43.28546" lon="6.0201">
        <ele>515.625</ele>
        <time>2014-05-29T08:07:38Z</time>
      </trkpt>
      <trkpt lat="43.28544" lon="6.02011">
        <ele>515.69921875</ele>
        <time>2014-05-29T08:07:39Z</time>
      </trkpt>
      <trkpt lat="43.28528" lon="6.02028">
        <ele>516.9921875</ele>
        <time>2014-05-29T08:07:54Z</time>
      </trkpt>
      <trkpt lat="43.28522" lon="6.02035">
        <ele>517.7578125</ele>
        <time>2014-05-29T08:08:00Z</time>
      </trkpt>
      <trkpt lat="43.28522" lon="6.02037">
        <ele>517.921875</ele>
        <time>2014-05-29T08:08:01Z</time>
      </trkpt>
      <trkpt lat="43.28521" lon="6.02038">
        <ele>518.03125</ele>
        <time>2014-05-29T08:08:02Z</time>
      </trkpt>
      <trkpt lat="43.2852" lon="6.02039">
        <ele>518.1796875</ele>
        <time>2014-05-29T08:08:03Z</time>
      </trkpt>
      <trkpt lat="43.28519" lon="6.0204">
        <ele>518.28515625</ele>
        <time>2014-05-29T08:08:04Z</time>
      </trkpt>
      <trkpt lat="43.28518" lon="6.02041">
        <ele>518.38671875</ele>
        <time>2014-05-29T08:08:05Z</time>
      </trkpt>
      <trkpt lat="43.28507" lon="6.02059">
        <ele>519.26171875</ele>
        <time>2014-05-29T08:08:19Z</time>
      </trkpt>
      <trkpt lat="43.28493" lon="6.02081">
        <ele>519.79296875</ele>
        <time>2014-05-29T08:08:35Z</time>
      </trkpt>
      <trkpt lat="43.28473" lon="6.02099">
        <ele>518.96875</ele>
        <time>2014-05-29T08:08:50Z</time>
      </trkpt>
      <trkpt lat="43.28469" lon="6.02106">
        <ele>518.828125</ele>
        <time>2014-05-29T08:08:52Z</time>
      </trkpt>
      <trkpt lat="43.28468" lon="6.02112">
        <ele>518.75</ele>
        <time>2014-05-29T08:08:53Z</time>
      </trkpt>
      <trkpt lat="43.28469" lon="6.02132">
        <ele>518.6328125</ele>
        <time>2014-05-29T08:08:56Z</time>
      </trkpt>
      <trkpt lat="43.28472" lon="6.02156">
        <ele>518.91015625</ele>
        <time>2014-05-29T08:08:59Z</time>
      </trkpt>
      <trkpt lat="43.28472" lon="6.02164">
        <ele>519.03125</ele>
        <time>2014-05-29T08:09:00Z</time>
      </trkpt>
      <trkpt lat="43.28472" lon="6.02172">
        <ele>519.3046875</ele>
        <time>2014-05-29T08:09:01Z</time>
      </trkpt>
      <trkpt lat="43.28472" lon="6.02179">
        <ele>519.58203125</ele>
        <time>2014-05-29T08:09:02Z</time>
      </trkpt>
      <trkpt lat="43.28473" lon="6.02186">
        <ele>519.87109375</ele>
        <time>2014-05-29T08:09:03Z</time>
      </trkpt>
      <trkpt lat="43.28474" lon="6.02193">
        <ele>520.0234375</ele>
        <time>2014-05-29T08:09:04Z</time>
      </trkpt>
      <trkpt lat="43.28477" lon="6.02199">
        <ele>520.11328125</ele>
        <time>2014-05-29T08:09:05Z</time>
      </trkpt>
      <trkpt lat="43.2848" lon="6.02205">
        <ele>520.21484375</ele>
        <time>2014-05-29T08:09:06Z</time>
      </trkpt>
      <trkpt lat="43.28483" lon="6.0221">
        <ele>520.3203125</ele>
        <time>2014-05-29T08:09:07Z</time>
      </trkpt>
      <trkpt lat="43.28485" lon="6.02215">
        <ele>520.41015625</ele>
        <time>2014-05-29T08:09:08Z</time>
      </trkpt>
      <trkpt lat="43.28501" lon="6.02268">
        <ele>517.4765625</ele>
        <time>2014-05-29T08:09:22Z</time>
      </trkpt>
      <trkpt lat="43.28511" lon="6.02305">
        <ele>514.63671875</ele>
        <time>2014-05-29T08:09:34Z</time>
      </trkpt>
      <trkpt lat="43.28516" lon="6.02351">
        <ele>510.63671875</ele>
        <time>2014-05-29T08:09:43Z</time>
      </trkpt>
      <trkpt lat="43.28517" lon="6.02358">
        <ele>510.359375</ele>
        <time>2014-05-29T08:09:44Z</time>
      </trkpt>
      <trkpt lat="43.2852" lon="6.02365">
        <ele>510.09375</ele>
        <time>2014-05-29T08:09:45Z</time>
      </trkpt>
      <trkpt lat="43.28525" lon="6.02383">
        <ele>509.86328125</ele>
        <time>2014-05-29T08:09:47Z</time>
      </trkpt>
      <trkpt lat="43.28529" lon="6.02401">
        <ele>510.640625</ele>
        <time>2014-05-29T08:09:49Z</time>
      </trkpt>
      <trkpt lat="43.28532" lon="6.02418">
        <ele>511.578125</ele>
        <time>2014-05-29T08:09:51Z</time>
      </trkpt>
      <trkpt lat="43.28532" lon="6.02426">
        <ele>511.91796875</ele>
        <time>2014-05-29T08:09:52Z</time>
      </trkpt>
      <trkpt lat="43.28532" lon="6.02441">
        <ele>512.58984375</ele>
        <time>2014-05-29T08:09:54Z</time>
      </trkpt>
      <trkpt lat="43.28533" lon="6.02447">
        <ele>513.15625</ele>
        <time>2014-05-29T08:09:55Z</time>
      </trkpt>
      <trkpt lat="43.28534" lon="6.02451">
        <ele>513.671875</ele>
        <time>2014-05-29T08:09:56Z</time>
      </trkpt>
      <trkpt lat="43.28535" lon="6.02453">
        <ele>514.0078125</ele>
        <time>2014-05-29T08:09:57Z</time>
      </trkpt>
      <trkpt lat="43.28535" lon="6.02455">
        <ele>514.14453125</ele>
        <time>2014-05-29T08:09:58Z</time>
      </trkpt>
      <trkpt lat="43.28534" lon="6.02457">
        <ele>514.19921875</ele>
        <time>2014-05-29T08:09:59Z</time>
      </trkpt>
      <trkpt lat="43.28534" lon="6.02459">
        <ele>514.21484375</ele>
        <time>2014-05-29T08:10:00Z</time>
      </trkpt>
      <trkpt lat="43.28533" lon="6.02461">
        <ele>514.28125</ele>
        <time>2014-05-29T08:10:01Z</time>
      </trkpt>
      <trkpt lat="43.28533" lon="6.02464">
        <ele>514.5625</ele>
        <time>2014-05-29T08:10:02Z</time>
      </trkpt>
      <trkpt lat="43.28534" lon="6.02467">
        <ele>514.8984375</ele>
        <time>2014-05-29T08:10:03Z</time>
      </trkpt>
      <trkpt lat="43.28535" lon="6.02471">
        <ele>515.203125</ele>
        <time>2014-05-29T08:10:04Z</time>
      </trkpt>
      <trkpt lat="43.28537" lon="6.02479">
        <ele>515.90625</ele>
        <time>2014-05-29T08:10:07Z</time>
      </trkpt>
      <trkpt lat="43.28537" lon="6.02481">
        <ele>515.96875</ele>
        <time>2014-05-29T08:10:08Z</time>
      </trkpt>
      <trkpt lat="43.2853" lon="6.02513">
        <ele>516.57421875</ele>
        <time>2014-05-29T08:10:22Z</time>
      </trkpt>
      <trkpt lat="43.28527" lon="6.02538">
        <ele>517.59765625</ele>
        <time>2014-05-29T08:10:31Z</time>
      </trkpt>
      <trkpt lat="43.28526" lon="6.0254">
        <ele>517.5078125</ele>
        <time>2014-05-29T08:10:32Z</time>
      </trkpt>
      <trkpt lat="43.28525" lon="6.0258">
        <ele>518.65625</ele>
        <time>2014-05-29T08:10:45Z</time>
      </trkpt>
      <trkpt lat="43.28534" lon="6.02623">
        <ele>520.8125</ele>
        <time>2014-05-29T08:10:59Z</time>
      </trkpt>
      <trkpt lat="43.28541" lon="6.02644">
        <ele>522.03125</ele>
        <time>2014-05-29T08:11:08Z</time>
      </trkpt>
      <trkpt lat="43.28549" lon="6.02679">
        <ele>521.7734375</ele>
        <time>2014-05-29T08:11:24Z</time>
      </trkpt>
      <trkpt lat="43.28562" lon="6.02707">
        <ele>522.48046875</ele>
        <time>2014-05-29T08:11:37Z</time>
      </trkpt>
      <trkpt lat="43.28574" lon="6.02745">
        <ele>522.65625</ele>
        <time>2014-05-29T08:11:53Z</time>
      </trkpt>
      <trkpt lat="43.28588" lon="6.02782">
        <ele>522.61328125</ele>
        <time>2014-05-29T08:12:08Z</time>
      </trkpt>
      <trkpt lat="43.28604" lon="6.02822">
        <ele>521.75</ele>
        <time>2014-05-29T08:12:25Z</time>
      </trkpt>
      <trkpt lat="43.2862" lon="6.02856">
        <ele>520.77734375</ele>
        <time>2014-05-29T08:12:41Z</time>
      </trkpt>
      <trkpt lat="43.28622" lon="6.02857">
        <ele>520.73046875</ele>
        <time>2014-05-29T08:12:42Z</time>
      </trkpt>
      <trkpt lat="43.28623" lon="6.02857">
        <ele>520.66796875</ele>
        <time>2014-05-29T08:12:43Z</time>
      </trkpt>
      <trkpt lat="43.28625" lon="6.02857">
        <ele>520.59765625</ele>
        <time>2014-05-29T08:12:44Z</time>
      </trkpt>
      <trkpt lat="43.28627" lon="6.02857">
        <ele>520.52734375</ele>
        <time>2014-05-29T08:12:45Z</time>
      </trkpt>
      <trkpt lat="43.28628" lon="6.02856">
        <ele>520.45703125</ele>
        <time>2014-05-29T08:12:46Z</time>
      </trkpt>
      <trkpt lat="43.2863" lon="6.02856">
        <ele>520.38671875</ele>
        <time>2014-05-29T08:12:47Z</time>
      </trkpt>
      <trkpt lat="43.28653" lon="6.02857">
        <ele>519.515625</ele>
        <time>2014-05-29T08:12:58Z</time>
      </trkpt>
      <trkpt lat="43.28697" lon="6.02877">
        <ele>517.3984375</ele>
        <time>2014-05-29T08:13:12Z</time>
      </trkpt>
      <trkpt lat="43.2873" lon="6.02888">
        <ele>515.421875</ele>
        <time>2014-05-29T08:13:21Z</time>
      </trkpt>
      <trkpt lat="43.28734" lon="6.02891">
        <ele>515.14453125</ele>
        <time>2014-05-29T08:13:22Z</time>
      </trkpt>
      <trkpt lat="43.28738" lon="6.02893">
        <ele>514.84375</ele>
        <time>2014-05-29T08:13:23Z</time>
      </trkpt>
      <trkpt lat="43.28742" lon="6.02896">
        <ele>514.5390625</ele>
        <time>2014-05-29T08:13:24Z</time>
      </trkpt>
      <trkpt lat="43.28746" lon="6.02899">
        <ele>514.26171875</ele>
        <time>2014-05-29T08:13:25Z</time>
      </trkpt>
      <trkpt lat="43.28751" lon="6.029">
        <ele>514.1015625</ele>
        <time>2014-05-29T08:13:26Z</time>
      </trkpt>
      <trkpt lat="43.28756" lon="6.02901">
        <ele>514.0234375</ele>
        <time>2014-05-29T08:13:27Z</time>
      </trkpt>
      <trkpt lat="43.2876" lon="6.029">
        <ele>514.0390625</ele>
        <time>2014-05-29T08:13:28Z</time>
      </trkpt>
      <trkpt lat="43.28765" lon="6.02899">
        <ele>514.171875</ele>
        <time>2014-05-29T08:13:29Z</time>
      </trkpt>
      <trkpt lat="43.28769" lon="6.02897">
        <ele>514.36328125</ele>
        <time>2014-05-29T08:13:30Z</time>
      </trkpt>
      <trkpt lat="43.28777" lon="6.02897">
        <ele>514.4609375</ele>
        <time>2014-05-29T08:13:32Z</time>
      </trkpt>
      <trkpt lat="43.28781" lon="6.02898">
        <ele>514.2578125</ele>
        <time>2014-05-29T08:13:33Z</time>
      </trkpt>
      <trkpt lat="43.28785" lon="6.029">
        <ele>513.98046875</ele>
        <time>2014-05-29T08:13:34Z</time>
      </trkpt>
      <trkpt lat="43.28789" lon="6.02903">
        <ele>513.62890625</ele>
        <time>2014-05-29T08:13:35Z</time>
      </trkpt>
      <trkpt lat="43.28804" lon="6.02931">
        <ele>511.48046875</ele>
        <time>2014-05-29T08:13:41Z</time>
      </trkpt>
      <trkpt lat="43.28807" lon="6.02939">
        <ele>510.9765625</ele>
        <time>2014-05-29T08:13:42Z</time>
      </trkpt>
      <trkpt lat="43.2881" lon="6.02944">
        <ele>510.77734375</ele>
        <time>2014-05-29T08:13:43Z</time>
      </trkpt>
      <trkpt lat="43.28819" lon="6.02959">
        <ele>509.94140625</ele>
        <time>2014-05-29T08:13:46Z</time>
      </trkpt>
      <trkpt lat="43.28826" lon="6.02967">
        <ele>509.2578125</ele>
        <time>2014-05-29T08:13:48Z</time>
      </trkpt>
      <trkpt lat="43.28829" lon="6.02972">
        <ele>508.98828125</ele>
        <time>2014-05-29T08:13:49Z</time>
      </trkpt>
      <trkpt lat="43.28832" lon="6.02976">
        <ele>508.73828125</ele>
        <time>2014-05-29T08:13:50Z</time>
      </trkpt>
      <trkpt lat="43.28834" lon="6.0298">
        <ele>508.50390625</ele>
        <time>2014-05-29T08:13:51Z</time>
      </trkpt>
      <trkpt lat="43.28837" lon="6.02984">
        <ele>508.44140625</ele>
        <time>2014-05-29T08:13:52Z</time>
      </trkpt>
      <trkpt lat="43.2884" lon="6.02986">
        <ele>508.4609375</ele>
        <time>2014-05-29T08:13:53Z</time>
      </trkpt>
      <trkpt lat="43.28844" lon="6.02989">
        <ele>508.5078125</ele>
        <time>2014-05-29T08:13:54Z</time>
      </trkpt>
      <trkpt lat="43.28865" lon="6.03023">
        <ele>508.1015625</ele>
        <time>2014-05-29T08:14:04Z</time>
      </trkpt>
      <trkpt lat="43.28882" lon="6.03046">
        <ele>508.0703125</ele>
        <time>2014-05-29T08:14:13Z</time>
      </trkpt>
      <trkpt lat="43.28883" lon="6.03049">
        <ele>508.00390625</ele>
        <time>2014-05-29T08:14:14Z</time>
      </trkpt>
      <trkpt lat="43.28882" lon="6.03051">
        <ele>508</ele>
        <time>2014-05-29T08:14:15Z</time>
      </trkpt>
      <trkpt lat="43.28882" lon="6.03054">
        <ele>508</ele>
        <time>2014-05-29T08:14:16Z</time>
      </trkpt>
      <trkpt lat="43.2888" lon="6.03056">
        <ele>508</ele>
        <time>2014-05-29T08:14:26Z</time>
      </trkpt>
      <trkpt lat="43.2888" lon="6.03056">
        <ele>508</ele>
        <time>2014-05-29T08:14:39Z</time>
      </trkpt>
      <trkpt lat="43.28881" lon="6.03055">
        <ele>508</ele>
        <time>2014-05-29T08:15:13Z</time>
      </trkpt>
      <trkpt lat="43.2888" lon="6.03056">
        <ele>508</ele>
        <time>2014-05-29T08:15:44Z</time>
      </trkpt>
      <trkpt lat="43.28879" lon="6.03058">
        <ele>508</ele>
        <time>2014-05-29T08:16:09Z</time>
      </trkpt>
      <trkpt lat="43.28878" lon="6.03059">
        <ele>508</ele>
        <time>2014-05-29T08:16:35Z</time>
      </trkpt>
      <trkpt lat="43.28879" lon="6.03057">
        <ele>508</ele>
        <time>2014-05-29T08:17:03Z</time>
      </trkpt>
      <trkpt lat="43.28879" lon="6.03056">
        <ele>508</ele>
        <time>2014-05-29T08:17:27Z</time>
      </trkpt>
      <trkpt lat="43.28879" lon="6.03054">
        <ele>508</ele>
        <time>2014-05-29T08:17:57Z</time>
      </trkpt>
      <trkpt lat="43.28878" lon="6.03054">
        <ele>508</ele>
        <time>2014-05-29T08:18:23Z</time>
      </trkpt>
      <trkpt lat="43.28876" lon="6.03055">
        <ele>508</ele>
        <time>2014-05-29T08:18:53Z</time>
      </trkpt>
      <trkpt lat="43.28877" lon="6.03056">
        <ele>508</ele>
        <time>2014-05-29T08:19:18Z</time>
      </trkpt>
      <trkpt lat="43.28877" lon="6.03055">
        <ele>508</ele>
        <time>2014-05-29T08:19:50Z</time>
      </trkpt>
      <trkpt lat="43.28878" lon="6.03057">
        <ele>508</ele>
        <time>2014-05-29T08:20:26Z</time>
      </trkpt>
      <trkpt lat="43.28877" lon="6.03054">
        <ele>508</ele>
        <time>2014-05-29T08:21:09Z</time>
      </trkpt>
      <trkpt lat="43.28879" lon="6.03055">
        <ele>508</ele>
        <time>2014-05-29T08:21:50Z</time>
      </trkpt>
      <trkpt lat="43.28878" lon="6.03054">
        <ele>508</ele>
        <time>2014-05-29T08:22:31Z</time>
      </trkpt>
      <trkpt lat="43.28876" lon="6.03048">
        <ele>508.0234375</ele>
        <time>2014-05-29T08:22:52Z</time>
      </trkpt>
      <trkpt lat="43.28876" lon="6.0305">
        <ele>508</ele>
        <time>2014-05-29T08:23:16Z</time>
      </trkpt>
      <trkpt lat="43.28878" lon="6.0305">
        <ele>508</ele>
        <time>2014-05-29T08:23:43Z</time>
      </trkpt>
      <trkpt lat="43.28881" lon="6.03053">
        <ele>508</ele>
        <time>2014-05-29T08:24:00Z</time>
      </trkpt>
      <trkpt lat="43.28882" lon="6.03051">
        <ele>508</ele>
        <time>2014-05-29T08:24:31Z</time>
      </trkpt>
      <trkpt lat="43.28881" lon="6.03053">
        <ele>508</ele>
        <time>2014-05-29T08:24:54Z</time>
      </trkpt>
      <trkpt lat="43.2888" lon="6.03055">
        <ele>508</ele>
        <time>2014-05-29T08:25:32Z</time>
      </trkpt>
      <trkpt lat="43.2888" lon="6.03056">
        <ele>508</ele>
        <time>2014-05-29T08:25:54Z</time>
      </trkpt>
      <trkpt lat="43.2888" lon="6.03058">
        <ele>508</ele>
        <time>2014-05-29T08:26:22Z</time>
      </trkpt>
      <trkpt lat="43.28874" lon="6.03066">
        <ele>508</ele>
        <time>2014-05-29T08:26:28Z</time>
      </trkpt>
      <trkpt lat="43.28854" lon="6.03084">
        <ele>507.82421875</ele>
        <time>2014-05-29T08:26:40Z</time>
      </trkpt>
      <trkpt lat="43.28845" lon="6.03103">
        <ele>507.65234375</ele>
        <time>2014-05-29T08:26:47Z</time>
      </trkpt>
      <trkpt lat="43.28845" lon="6.03107">
        <ele>507.55859375</ele>
        <time>2014-05-29T08:26:48Z</time>
      </trkpt>
      <trkpt lat="43.28846" lon="6.03109">
        <ele>507.4140625</ele>
        <time>2014-05-29T08:26:49Z</time>
      </trkpt>
      <trkpt lat="43.28848" lon="6.03112">
        <ele>507.2578125</ele>
        <time>2014-05-29T08:26:50Z</time>
      </trkpt>
      <trkpt lat="43.2885" lon="6.03115">
        <ele>507.08203125</ele>
        <time>2014-05-29T08:26:51Z</time>
      </trkpt>
      <trkpt lat="43.28852" lon="6.03118">
        <ele>506.90234375</ele>
        <time>2014-05-29T08:26:52Z</time>
      </trkpt>
      <trkpt lat="43.2886" lon="6.03136">
        <ele>505.69921875</ele>
        <time>2014-05-29T08:26:57Z</time>
      </trkpt>
      <trkpt lat="43.2886" lon="6.0314">
        <ele>505.27734375</ele>
        <time>2014-05-29T08:26:58Z</time>
      </trkpt>
      <trkpt lat="43.28861" lon="6.03145">
        <ele>504.78125</ele>
        <time>2014-05-29T08:26:59Z</time>
      </trkpt>
      <trkpt lat="43.28862" lon="6.03148">
        <ele>504.3125</ele>
        <time>2014-05-29T08:27:00Z</time>
      </trkpt>
      <trkpt lat="43.28862" lon="6.03151">
        <ele>503.9609375</ele>
        <time>2014-05-29T08:27:01Z</time>
      </trkpt>
      <trkpt lat="43.28872" lon="6.03187">
        <ele>500.0859375</ele>
        <time>2014-05-29T08:27:10Z</time>
      </trkpt>
      <trkpt lat="43.28878" lon="6.03204">
        <ele>498.484375</ele>
        <time>2014-05-29T08:27:14Z</time>
      </trkpt>
      <trkpt lat="43.2888" lon="6.03208">
        <ele>497.96484375</ele>
        <time>2014-05-29T08:27:15Z</time>
      </trkpt>
      <trkpt lat="43.28885" lon="6.03217">
        <ele>496.70703125</ele>
        <time>2014-05-29T08:27:17Z</time>
      </trkpt>
      <trkpt lat="43.28888" lon="6.03221">
        <ele>496.078125</ele>
        <time>2014-05-29T08:27:18Z</time>
      </trkpt>
      <trkpt lat="43.28901" lon="6.03238">
        <ele>493.6796875</ele>
        <time>2014-05-29T08:27:23Z</time>
      </trkpt>
      <trkpt lat="43.28914" lon="6.03251">
        <ele>491.53515625</ele>
        <time>2014-05-29T08:27:28Z</time>
      </trkpt>
      <trkpt lat="43.28926" lon="6.03261">
        <ele>490.390625</ele>
        <time>2014-05-29T08:27:31Z</time>
      </trkpt>
      <trkpt lat="43.28952" lon="6.03287">
        <ele>488.69921875</ele>
        <time>2014-05-29T08:27:40Z</time>
      </trkpt>
      <trkpt lat="43.28953" lon="6.03288">
        <ele>488.63671875</ele>
        <time>2014-05-29T08:27:41Z</time>
      </trkpt>
      <trkpt lat="43.28955" lon="6.03289">
        <ele>488.5546875</ele>
        <time>2014-05-29T08:27:42Z</time>
      </trkpt>
      <trkpt lat="43.28961" lon="6.0329">
        <ele>488.265625</ele>
        <time>2014-05-29T08:27:49Z</time>
      </trkpt>
      <trkpt lat="43.28964" lon="6.03289">
        <ele>488.125</ele>
        <time>2014-05-29T08:27:55Z</time>
      </trkpt>
      <trkpt lat="43.28965" lon="6.03289">
        <ele>488.046875</ele>
        <time>2014-05-29T08:27:56Z</time>
      </trkpt>
      <trkpt lat="43.28995" lon="6.03282">
        <ele>485.8515625</ele>
        <time>2014-05-29T08:28:05Z</time>
      </trkpt>
      <trkpt lat="43.29003" lon="6.0328">
        <ele>485.24609375</ele>
        <time>2014-05-29T08:28:07Z</time>
      </trkpt>
      <trkpt lat="43.29008" lon="6.0328">
        <ele>485.06640625</ele>
        <time>2014-05-29T08:28:08Z</time>
      </trkpt>
      <trkpt lat="43.29018" lon="6.03279">
        <ele>484.6640625</ele>
        <time>2014-05-29T08:28:10Z</time>
      </trkpt>
      <trkpt lat="43.29023" lon="6.03277">
        <ele>484.42578125</ele>
        <time>2014-05-29T08:28:11Z</time>
      </trkpt>
      <trkpt lat="43.29053" lon="6.03267">
        <ele>482.99609375</ele>
        <time>2014-05-29T08:28:17Z</time>
      </trkpt>
      <trkpt lat="43.29084" lon="6.03253">
        <ele>480.74609375</ele>
        <time>2014-05-29T08:28:24Z</time>
      </trkpt>
      <trkpt lat="43.29088" lon="6.0325">
        <ele>480.23828125</ele>
        <time>2014-05-29T08:28:25Z</time>
      </trkpt>
      <trkpt lat="43.29091" lon="6.03245">
        <ele>479.66796875</ele>
        <time>2014-05-29T08:28:26Z</time>
      </trkpt>
      <trkpt lat="43.29095" lon="6.03241">
        <ele>479.21484375</ele>
        <time>2014-05-29T08:28:27Z</time>
      </trkpt>
      <trkpt lat="43.29099" lon="6.03237">
        <ele>478.8671875</ele>
        <time>2014-05-29T08:28:28Z</time>
      </trkpt>
      <trkpt lat="43.29103" lon="6.03233">
        <ele>478.546875</ele>
        <time>2014-05-29T08:28:29Z</time>
      </trkpt>
      <trkpt lat="43.29108" lon="6.0323">
        <ele>478.2578125</ele>
        <time>2014-05-29T08:28:30Z</time>
      </trkpt>
      <trkpt lat="43.29112" lon="6.03227">
        <ele>478.01171875</ele>
        <time>2014-05-29T08:28:31Z</time>
      </trkpt>
      <trkpt lat="43.29116" lon="6.03222">
        <ele>477.7421875</ele>
        <time>2014-05-29T08:28:32Z</time>
      </trkpt>
      <trkpt lat="43.2912" lon="6.03217">
        <ele>477.453125</ele>
        <time>2014-05-29T08:28:33Z</time>
      </trkpt>
      <trkpt lat="43.29124" lon="6.03213">
        <ele>477.16015625</ele>
        <time>2014-05-29T08:28:34Z</time>
      </trkpt>
      <trkpt lat="43.29128" lon="6.03209">
        <ele>476.8359375</ele>
        <time>2014-05-29T08:28:35Z</time>
      </trkpt>
      <trkpt lat="43.29133" lon="6.03207">
        <ele>476.48828125</ele>
        <time>2014-05-29T08:28:36Z</time>
      </trkpt>
      <trkpt lat="43.29138" lon="6.03206">
        <ele>476.1484375</ele>
        <time>2014-05-29T08:28:37Z</time>
      </trkpt>
      <trkpt lat="43.29143" lon="6.03205">
        <ele>475.90234375</ele>
        <time>2014-05-29T08:28:38Z</time>
      </trkpt>
      <trkpt lat="43.29148" lon="6.03204">
        <ele>475.73046875</ele>
        <time>2014-05-29T08:28:39Z</time>
      </trkpt>
      <trkpt lat="43.29158" lon="6.03203">
        <ele>475.3671875</ele>
        <time>2014-05-29T08:28:41Z</time>
      </trkpt>
      <trkpt lat="43.29163" lon="6.03203">
        <ele>475.1875</ele>
        <time>2014-05-29T08:28:42Z</time>
      </trkpt>
      <trkpt lat="43.29186" lon="6.0321">
        <ele>474.87109375</ele>
        <time>2014-05-29T08:28:47Z</time>
      </trkpt>
      <trkpt lat="43.29191" lon="6.0321">
        <ele>474.828125</ele>
        <time>2014-05-29T08:28:48Z</time>
      </trkpt>
      <trkpt lat="43.29196" lon="6.03209">
        <ele>474.74609375</ele>
        <time>2014-05-29T08:28:49Z</time>
      </trkpt>
      <trkpt lat="43.29201" lon="6.03206">
        <ele>474.6328125</ele>
        <time>2014-05-29T08:28:50Z</time>
      </trkpt>
      <trkpt lat="43.29205" lon="6.03201">
        <ele>474.46484375</ele>
        <time>2014-05-29T08:28:51Z</time>
      </trkpt>
      <trkpt lat="43.29208" lon="6.03196">
        <ele>474.2890625</ele>
        <time>2014-05-29T08:28:52Z</time>
      </trkpt>
      <trkpt lat="43.29212" lon="6.03192">
        <ele>474.13671875</ele>
        <time>2014-05-29T08:28:53Z</time>
      </trkpt>
      <trkpt lat="43.29215" lon="6.03188">
        <ele>474</ele>
        <time>2014-05-29T08:28:54Z</time>
      </trkpt>
      <trkpt lat="43.29219" lon="6.03185">
        <ele>474.01953125</ele>
        <time>2014-05-29T08:28:55Z</time>
      </trkpt>
      <trkpt lat="43.29226" lon="6.0318">
        <ele>474</ele>
        <time>2014-05-29T08:28:57Z</time>
      </trkpt>
      <trkpt lat="43.29241" lon="6.03169">
        <ele>474</ele>
        <time>2014-05-29T08:29:01Z</time>
      </trkpt>
      <trkpt lat="43.29274" lon="6.03163">
        <ele>474.0859375</ele>
        <time>2014-05-29T08:29:12Z</time>
      </trkpt>
      <trkpt lat="43.29305" lon="6.03151">
        <ele>474</ele>
        <time>2014-05-29T08:29:23Z</time>
      </trkpt>
      <trkpt lat="43.29336" lon="6.03147">
        <ele>474</ele>
        <time>2014-05-29T08:29:32Z</time>
      </trkpt>
      <trkpt lat="43.29365" lon="6.03129">
        <ele>474.12890625</ele>
        <time>2014-05-29T08:29:42Z</time>
      </trkpt>
      <trkpt lat="43.29396" lon="6.03126">
        <ele>474.25</ele>
        <time>2014-05-29T08:29:51Z</time>
      </trkpt>
      <trkpt lat="43.29398" lon="6.03123">
        <ele>474.359375</ele>
        <time>2014-05-29T08:29:52Z</time>
      </trkpt>
      <trkpt lat="43.294" lon="6.0312">
        <ele>474.4453125</ele>
        <time>2014-05-29T08:29:53Z</time>
      </trkpt>
      <trkpt lat="43.294" lon="6.03118">
        <ele>474.51953125</ele>
        <time>2014-05-29T08:29:54Z</time>
      </trkpt>
      <trkpt lat="43.29401" lon="6.03116">
        <ele>474.6015625</ele>
        <time>2014-05-29T08:29:55Z</time>
      </trkpt>
      <trkpt lat="43.29402" lon="6.03114">
        <ele>474.68359375</ele>
        <time>2014-05-29T08:29:56Z</time>
      </trkpt>
      <trkpt lat="43.29404" lon="6.03112">
        <ele>474.72265625</ele>
        <time>2014-05-29T08:29:57Z</time>
      </trkpt>
      <trkpt lat="43.29407" lon="6.03112">
        <ele>474.7421875</ele>
        <time>2014-05-29T08:29:58Z</time>
      </trkpt>
      <trkpt lat="43.29409" lon="6.03112">
        <ele>474.7421875</ele>
        <time>2014-05-29T08:29:59Z</time>
      </trkpt>
      <trkpt lat="43.29442" lon="6.03119">
        <ele>473.62890625</ele>
        <time>2014-05-29T08:30:10Z</time>
      </trkpt>
      <trkpt lat="43.29475" lon="6.03113">
        <ele>471.5703125</ele>
        <time>2014-05-29T08:30:22Z</time>
      </trkpt>
      <trkpt lat="43.29488" lon="6.03112">
        <ele>470.6953125</ele>
        <time>2014-05-29T08:30:32Z</time>
      </trkpt>
      <trkpt lat="43.29486" lon="6.03114">
        <ele>470.76171875</ele>
        <time>2014-05-29T08:30:34Z</time>
      </trkpt>
      <trkpt lat="43.29485" lon="6.03115">
        <ele>470.796875</ele>
        <time>2014-05-29T08:30:35Z</time>
      </trkpt>
      <trkpt lat="43.29483" lon="6.03118">
        <ele>470.796875</ele>
        <time>2014-05-29T08:30:36Z</time>
      </trkpt>
      <trkpt lat="43.29482" lon="6.03121">
        <ele>470.76171875</ele>
        <time>2014-05-29T08:30:37Z</time>
      </trkpt>
      <trkpt lat="43.29482" lon="6.03124">
        <ele>470.69140625</ele>
        <time>2014-05-29T08:30:38Z</time>
      </trkpt>
      <trkpt lat="43.29481" lon="6.03128">
        <ele>470.57421875</ele>
        <time>2014-05-29T08:30:39Z</time>
      </trkpt>
      <trkpt lat="43.29496" lon="6.03158">
        <ele>470.12109375</ele>
        <time>2014-05-29T08:30:47Z</time>
      </trkpt>
      <trkpt lat="43.29512" lon="6.03166">
        <ele>469.77734375</ele>
        <time>2014-05-29T08:30:51Z</time>
      </trkpt>
      <trkpt lat="43.29516" lon="6.03169">
        <ele>469.75</ele>
        <time>2014-05-29T08:30:52Z</time>
      </trkpt>
      <trkpt lat="43.2952" lon="6.03172">
        <ele>469.74609375</ele>
        <time>2014-05-29T08:30:53Z</time>
      </trkpt>
      <trkpt lat="43.29524" lon="6.03177">
        <ele>469.78515625</ele>
        <time>2014-05-29T08:30:54Z</time>
      </trkpt>
      <trkpt lat="43.29527" lon="6.03183">
        <ele>469.88671875</ele>
        <time>2014-05-29T08:30:55Z</time>
      </trkpt>
      <trkpt lat="43.29531" lon="6.03192">
        <ele>470.40625</ele>
        <time>2014-05-29T08:30:56Z</time>
      </trkpt>
      <trkpt lat="43.29534" lon="6.03201">
        <ele>471.27734375</ele>
        <time>2014-05-29T08:30:57Z</time>
      </trkpt>
      <trkpt lat="43.29535" lon="6.03211">
        <ele>472.08984375</ele>
        <time>2014-05-29T08:30:58Z</time>
      </trkpt>
      <trkpt lat="43.29535" lon="6.0322">
        <ele>472.7265625</ele>
        <time>2014-05-29T08:30:59Z</time>
      </trkpt>
      <trkpt lat="43.29534" lon="6.03228">
        <ele>473.1953125</ele>
        <time>2014-05-29T08:31:00Z</time>
      </trkpt>
      <trkpt lat="43.29532" lon="6.03236">
        <ele>473.59765625</ele>
        <time>2014-05-29T08:31:01Z</time>
      </trkpt>
      <trkpt lat="43.2953" lon="6.03242">
        <ele>473.94921875</ele>
        <time>2014-05-29T08:31:02Z</time>
      </trkpt>
      <trkpt lat="43.29527" lon="6.03248">
        <ele>474.05078125</ele>
        <time>2014-05-29T08:31:03Z</time>
      </trkpt>
      <trkpt lat="43.29499" lon="6.03303">
        <ele>475.2734375</ele>
        <time>2014-05-29T08:31:18Z</time>
      </trkpt>
      <trkpt lat="43.29498" lon="6.03306">
        <ele>475.5</ele>
        <time>2014-05-29T08:31:20Z</time>
      </trkpt>
      <trkpt lat="43.29498" lon="6.03308">
        <ele>475.63671875</ele>
        <time>2014-05-29T08:31:26Z</time>
      </trkpt>
      <trkpt lat="43.29502" lon="6.03305">
        <ele>475.515625</ele>
        <time>2014-05-29T08:31:29Z</time>
      </trkpt>
      <trkpt lat="43.29503" lon="6.03302">
        <ele>475.3515625</ele>
        <time>2014-05-29T08:31:30Z</time>
      </trkpt>
      <trkpt lat="43.29503" lon="6.03299">
        <ele>475.140625</ele>
        <time>2014-05-29T08:31:31Z</time>
      </trkpt>
      <trkpt lat="43.29503" lon="6.03297">
        <ele>475.06640625</ele>
        <time>2014-05-29T08:31:32Z</time>
      </trkpt>
      <trkpt lat="43.29504" lon="6.03295">
        <ele>475.06640625</ele>
        <time>2014-05-29T08:31:33Z</time>
      </trkpt>
      <trkpt lat="43.29506" lon="6.03292">
        <ele>475.05859375</ele>
        <time>2014-05-29T08:31:34Z</time>
      </trkpt>
      <trkpt lat="43.29509" lon="6.03288">
        <ele>475.0703125</ele>
        <time>2014-05-29T08:31:36Z</time>
      </trkpt>
      <trkpt lat="43.29524" lon="6.03292">
        <ele>476.1796875</ele>
        <time>2014-05-29T08:31:43Z</time>
      </trkpt>
      <trkpt lat="43.29536" lon="6.03297">
        <ele>477.6796875</ele>
        <time>2014-05-29T08:31:53Z</time>
      </trkpt>
      <trkpt lat="43.29537" lon="6.03299">
        <ele>477.83203125</ele>
        <time>2014-05-29T08:31:54Z</time>
      </trkpt>
      <trkpt lat="43.29555" lon="6.03305">
        <ele>480.296875</ele>
        <time>2014-05-29T08:32:08Z</time>
      </trkpt>
      <trkpt lat="43.29561" lon="6.03296">
        <ele>480.07421875</ele>
        <time>2014-05-29T08:32:15Z</time>
      </trkpt>
      <trkpt lat="43.29563" lon="6.03293">
        <ele>480.05078125</ele>
        <time>2014-05-29T08:32:17Z</time>
      </trkpt>
      <trkpt lat="43.29573" lon="6.0329">
        <ele>480.5390625</ele>
        <time>2014-05-29T08:32:24Z</time>
      </trkpt>
      <trkpt lat="43.2959" lon="6.03281">
        <ele>481.12109375</ele>
        <time>2014-05-29T08:32:35Z</time>
      </trkpt>
      <trkpt lat="43.29619" lon="6.03267">
        <ele>482.09765625</ele>
        <time>2014-05-29T08:32:51Z</time>
      </trkpt>
      <trkpt lat="43.29646" lon="6.03243">
        <ele>481.40625</ele>
        <time>2014-05-29T08:33:03Z</time>
      </trkpt>
      <trkpt lat="43.2967" lon="6.03219">
        <ele>481.33203125</ele>
        <time>2014-05-29T08:33:14Z</time>
      </trkpt>
      <trkpt lat="43.29699" lon="6.03203">
        <ele>481.125</ele>
        <time>2014-05-29T08:33:25Z</time>
      </trkpt>
      <trkpt lat="43.29701" lon="6.03201">
        <ele>481.0078125</ele>
        <time>2014-05-29T08:33:26Z</time>
      </trkpt>
      <trkpt lat="43.29722" lon="6.03171">
        <ele>479.3515625</ele>
        <time>2014-05-29T08:33:36Z</time>
      </trkpt>
      <trkpt lat="43.29758" lon="6.03173">
        <ele>481.3125</ele>
        <time>2014-05-29T08:33:48Z</time>
      </trkpt>
      <trkpt lat="43.29784" lon="6.03173">
        <ele>482.76171875</ele>
        <time>2014-05-29T08:33:59Z</time>
      </trkpt>
      <trkpt lat="43.29791" lon="6.03172">
        <ele>483.078125</ele>
        <time>2014-05-29T08:34:03Z</time>
      </trkpt>
      <trkpt lat="43.29794" lon="6.03171">
        <ele>483.13671875</ele>
        <time>2014-05-29T08:34:17Z</time>
      </trkpt>
      <trkpt lat="43.29794" lon="6.03167">
        <ele>482.921875</ele>
        <time>2014-05-29T08:34:44Z</time>
      </trkpt>
      <trkpt lat="43.29791" lon="6.03167">
        <ele>482.78125</ele>
        <time>2014-05-29T08:34:49Z</time>
      </trkpt>
      <trkpt lat="43.29776" lon="6.0317">
        <ele>482.18359375</ele>
        <time>2014-05-29T08:34:57Z</time>
      </trkpt>
      <trkpt lat="43.29763" lon="6.03171">
        <ele>481.46875</ele>
        <time>2014-05-29T08:35:05Z</time>
      </trkpt>
      <trkpt lat="43.29762" lon="6.03168">
        <ele>481.25</ele>
        <time>2014-05-29T08:35:07Z</time>
      </trkpt>
      <trkpt lat="43.29762" lon="6.03157">
        <ele>480.65234375</ele>
        <time>2014-05-29T08:35:14Z</time>
      </trkpt>
      <trkpt lat="43.29766" lon="6.03152">
        <ele>480.67578125</ele>
        <time>2014-05-29T08:35:18Z</time>
      </trkpt>
      <trkpt lat="43.29768" lon="6.03145">
        <ele>480.39453125</ele>
        <time>2014-05-29T08:35:21Z</time>
      </trkpt>
      <trkpt lat="43.29782" lon="6.03141">
        <ele>480.8203125</ele>
        <time>2014-05-29T08:35:31Z</time>
      </trkpt>
      <trkpt lat="43.29787" lon="6.03125">
        <ele>480.58203125</ele>
        <time>2014-05-29T08:35:40Z</time>
      </trkpt>
      <trkpt lat="43.29793" lon="6.03117">
        <ele>481.03515625</ele>
        <time>2014-05-29T08:35:46Z</time>
      </trkpt>
      <trkpt lat="43.29798" lon="6.03114">
        <ele>481.36328125</ele>
        <time>2014-05-29T08:35:50Z</time>
      </trkpt>
      <trkpt lat="43.29805" lon="6.0311">
        <ele>481.9296875</ele>
        <time>2014-05-29T08:35:59Z</time>
      </trkpt>
      <trkpt lat="43.29809" lon="6.03105">
        <ele>481.9140625</ele>
        <time>2014-05-29T08:36:10Z</time>
      </trkpt>
      <trkpt lat="43.2981" lon="6.031">
        <ele>481.8515625</ele>
        <time>2014-05-29T08:36:13Z</time>
      </trkpt>
      <trkpt lat="43.29819" lon="6.03096">
        <ele>481.5390625</ele>
        <time>2014-05-29T08:36:19Z</time>
      </trkpt>
      <trkpt lat="43.29827" lon="6.03091">
        <ele>481.265625</ele>
        <time>2014-05-29T08:36:25Z</time>
      </trkpt>
      <trkpt lat="43.2983" lon="6.03083">
        <ele>481.16015625</ele>
        <time>2014-05-29T08:36:29Z</time>
      </trkpt>
      <trkpt lat="43.29828" lon="6.03074">
        <ele>481.20703125</ele>
        <time>2014-05-29T08:36:42Z</time>
      </trkpt>
      <trkpt lat="43.29829" lon="6.03071">
        <ele>481.1796875</ele>
        <time>2014-05-29T08:37:04Z</time>
      </trkpt>
      <trkpt lat="43.29829" lon="6.03068">
        <ele>481.1796875</ele>
        <time>2014-05-29T08:37:18Z</time>
      </trkpt>
      <trkpt lat="43.29827" lon="6.03067">
        <ele>481.25390625</ele>
        <time>2014-05-29T08:37:39Z</time>
      </trkpt>
      <trkpt lat="43.29827" lon="6.03062">
        <ele>481.23828125</ele>
        <time>2014-05-29T08:37:43Z</time>
      </trkpt>
      <trkpt lat="43.29833" lon="6.03056">
        <ele>481.0234375</ele>
        <time>2014-05-29T08:37:48Z</time>
      </trkpt>
      <trkpt lat="43.29837" lon="6.03053">
        <ele>480.78125</ele>
        <time>2014-05-29T08:37:52Z</time>
      </trkpt>
      <trkpt lat="43.29845" lon="6.03039">
        <ele>479.83984375</ele>
        <time>2014-05-29T08:37:59Z</time>
      </trkpt>
      <trkpt lat="43.29858" lon="6.03027">
        <ele>478.484375</ele>
        <time>2014-05-29T08:38:06Z</time>
      </trkpt>
      <trkpt lat="43.29875" lon="6.03023">
        <ele>476.1171875</ele>
        <time>2014-05-29T08:38:16Z</time>
      </trkpt>
      <trkpt lat="43.29876" lon="6.03023">
        <ele>475.99609375</ele>
        <time>2014-05-29T08:38:17Z</time>
      </trkpt>
      <trkpt lat="43.29889" lon="6.03012">
        <ele>473.81640625</ele>
        <time>2014-05-29T08:38:26Z</time>
      </trkpt>
      <trkpt lat="43.29896" lon="6.03013">
        <ele>472.765625</ele>
        <time>2014-05-29T08:38:31Z</time>
      </trkpt>
      <trkpt lat="43.29905" lon="6.03004">
        <ele>471.09765625</ele>
        <time>2014-05-29T08:38:38Z</time>
      </trkpt>
      <trkpt lat="43.29906" lon="6.02996">
        <ele>470.671875</ele>
        <time>2014-05-29T08:38:41Z</time>
      </trkpt>
      <trkpt lat="43.29921" lon="6.02987">
        <ele>467.72265625</ele>
        <time>2014-05-29T08:38:48Z</time>
      </trkpt>
      <trkpt lat="43.29932" lon="6.02988">
        <ele>465.375</ele>
        <time>2014-05-29T08:38:56Z</time>
      </trkpt>
      <trkpt lat="43.29938" lon="6.02984">
        <ele>463.8046875</ele>
        <time>2014-05-29T08:39:00Z</time>
      </trkpt>
      <trkpt lat="43.29951" lon="6.02982">
        <ele>460.7265625</ele>
        <time>2014-05-29T08:39:07Z</time>
      </trkpt>
      <trkpt lat="43.29954" lon="6.02978">
        <ele>459.69921875</ele>
        <time>2014-05-29T08:39:14Z</time>
      </trkpt>
      <trkpt lat="43.2996" lon="6.02973">
        <ele>457.95703125</ele>
        <time>2014-05-29T08:39:19Z</time>
      </trkpt>
      <trkpt lat="43.29962" lon="6.0296">
        <ele>456.328125</ele>
        <time>2014-05-29T08:39:24Z</time>
      </trkpt>
      <trkpt lat="43.29965" lon="6.02946">
        <ele>454.6171875</ele>
        <time>2014-05-29T08:39:30Z</time>
      </trkpt>
      <trkpt lat="43.29964" lon="6.02936">
        <ele>454.1796875</ele>
        <time>2014-05-29T08:39:34Z</time>
      </trkpt>
      <trkpt lat="43.29966" lon="6.0293">
        <ele>453.69140625</ele>
        <time>2014-05-29T08:39:36Z</time>
      </trkpt>
      <trkpt lat="43.29968" lon="6.0292">
        <ele>453.265625</ele>
        <time>2014-05-29T08:39:39Z</time>
      </trkpt>
      <trkpt lat="43.29967" lon="6.02908">
        <ele>453.5859375</ele>
        <time>2014-05-29T08:39:43Z</time>
      </trkpt>
      <trkpt lat="43.29972" lon="6.02904">
        <ele>452.1328125</ele>
        <time>2014-05-29T08:39:46Z</time>
      </trkpt>
      <trkpt lat="43.29974" lon="6.02898">
        <ele>451.74609375</ele>
        <time>2014-05-29T08:39:48Z</time>
      </trkpt>
      <trkpt lat="43.29994" lon="6.02889">
        <ele>446.23046875</ele>
        <time>2014-05-29T08:39:57Z</time>
      </trkpt>
      <trkpt lat="43.29997" lon="6.02889">
        <ele>445.484375</ele>
        <time>2014-05-29T08:39:58Z</time>
      </trkpt>
      <trkpt lat="43.30002" lon="6.02887">
        <ele>444.1796875</ele>
        <time>2014-05-29T08:40:00Z</time>
      </trkpt>
      <trkpt lat="43.30018" lon="6.02865">
        <ele>440.61328125</ele>
        <time>2014-05-29T08:40:07Z</time>
      </trkpt>
      <trkpt lat="43.30032" lon="6.02853">
        <ele>437.20703125</ele>
        <time>2014-05-29T08:40:11Z</time>
      </trkpt>
      <trkpt lat="43.30039" lon="6.02853">
        <ele>435.0546875</ele>
        <time>2014-05-29T08:40:22Z</time>
      </trkpt>
      <trkpt lat="43.3005" lon="6.02851">
        <ele>431.86328125</ele>
        <time>2014-05-29T08:40:32Z</time>
      </trkpt>
      <trkpt lat="43.30053" lon="6.02852">
        <ele>430.8515625</ele>
        <time>2014-05-29T08:40:35Z</time>
      </trkpt>
      <trkpt lat="43.30057" lon="6.0285">
        <ele>429.7578125</ele>
        <time>2014-05-29T08:40:38Z</time>
      </trkpt>
      <trkpt lat="43.30064" lon="6.02851">
        <ele>426.11328125</ele>
        <time>2014-05-29T08:40:42Z</time>
      </trkpt>
      <trkpt lat="43.30069" lon="6.02852">
        <ele>423.71484375</ele>
        <time>2014-05-29T08:40:44Z</time>
      </trkpt>
      <trkpt lat="43.30077" lon="6.02852">
        <ele>419.77734375</ele>
        <time>2014-05-29T08:40:47Z</time>
      </trkpt>
      <trkpt lat="43.30086" lon="6.02848">
        <ele>416.91015625</ele>
        <time>2014-05-29T08:40:50Z</time>
      </trkpt>
      <trkpt lat="43.30099" lon="6.02842">
        <ele>411.30078125</ele>
        <time>2014-05-29T08:40:54Z</time>
      </trkpt>
      <trkpt lat="43.30117" lon="6.02825">
        <ele>404.07421875</ele>
        <time>2014-05-29T08:41:01Z</time>
      </trkpt>
      <trkpt lat="43.30125" lon="6.02804">
        <ele>403.32421875</ele>
        <time>2014-05-29T08:41:10Z</time>
      </trkpt>
      <trkpt lat="43.30127" lon="6.02802">
        <ele>401.9921875</ele>
        <time>2014-05-29T08:41:29Z</time>
      </trkpt>
      <trkpt lat="43.30135" lon="6.02788">
        <ele>401.28515625</ele>
        <time>2014-05-29T08:41:44Z</time>
      </trkpt>
      <trkpt lat="43.30142" lon="6.02777">
        <ele>402.85546875</ele>
        <time>2014-05-29T08:41:48Z</time>
      </trkpt>
      <trkpt lat="43.30158" lon="6.02758">
        <ele>404.8125</ele>
        <time>2014-05-29T08:41:56Z</time>
      </trkpt>
      <trkpt lat="43.3016" lon="6.02754">
        <ele>405.4609375</ele>
        <time>2014-05-29T08:41:58Z</time>
      </trkpt>
      <trkpt lat="43.30164" lon="6.0275">
        <ele>405.86328125</ele>
        <time>2014-05-29T08:42:01Z</time>
      </trkpt>
      <trkpt lat="43.30167" lon="6.02738">
        <ele>407.921875</ele>
        <time>2014-05-29T08:42:12Z</time>
      </trkpt>
      <trkpt lat="43.30174" lon="6.0273">
        <ele>407.984375</ele>
        <time>2014-05-29T08:42:22Z</time>
      </trkpt>
      <trkpt lat="43.30178" lon="6.02725">
        <ele>408.05859375</ele>
        <time>2014-05-29T08:42:34Z</time>
      </trkpt>
      <trkpt lat="43.30181" lon="6.02722">
        <ele>408.14453125</ele>
        <time>2014-05-29T08:42:40Z</time>
      </trkpt>
      <trkpt lat="43.30179" lon="6.0272">
        <ele>408.7890625</ele>
        <time>2014-05-29T08:42:44Z</time>
      </trkpt>
      <trkpt lat="43.30179" lon="6.02718">
        <ele>408.921875</ele>
        <time>2014-05-29T08:42:55Z</time>
      </trkpt>
      <trkpt lat="43.30185" lon="6.02718">
        <ele>408.16796875</ele>
        <time>2014-05-29T08:43:06Z</time>
      </trkpt>
      <trkpt lat="43.302" lon="6.02723">
        <ele>405.984375</ele>
        <time>2014-05-29T08:43:16Z</time>
      </trkpt>
      <trkpt lat="43.30205" lon="6.0274">
        <ele>403.25</ele>
        <time>2014-05-29T08:43:27Z</time>
      </trkpt>
      <trkpt lat="43.30207" lon="6.02745">
        <ele>402.0625</ele>
        <time>2014-05-29T08:43:39Z</time>
      </trkpt>
      <trkpt lat="43.30209" lon="6.02745">
        <ele>402.03515625</ele>
        <time>2014-05-29T08:43:48Z</time>
      </trkpt>
      <trkpt lat="43.30206" lon="6.02743">
        <ele>402.6640625</ele>
        <time>2014-05-29T08:44:05Z</time>
      </trkpt>
      <trkpt lat="43.30209" lon="6.02744">
        <ele>402.30078125</ele>
        <time>2014-05-29T08:44:17Z</time>
      </trkpt>
      <trkpt lat="43.3021" lon="6.02743">
        <ele>402.56640625</ele>
        <time>2014-05-29T08:44:19Z</time>
      </trkpt>
      <trkpt lat="43.30213" lon="6.02736">
        <ele>403.71875</ele>
        <time>2014-05-29T08:44:28Z</time>
      </trkpt>
      <trkpt lat="43.30217" lon="6.02732">
        <ele>404.18359375</ele>
        <time>2014-05-29T08:44:41Z</time>
      </trkpt>
      <trkpt lat="43.30222" lon="6.02738">
        <ele>403.14453125</ele>
        <time>2014-05-29T08:44:59Z</time>
      </trkpt>
      <trkpt lat="43.30224" lon="6.02741">
        <ele>402.47265625</ele>
        <time>2014-05-29T08:45:35Z</time>
      </trkpt>
      <trkpt lat="43.30224" lon="6.02739">
        <ele>402.8203125</ele>
        <time>2014-05-29T08:46:15Z</time>
      </trkpt>
      <trkpt lat="43.30223" lon="6.02737">
        <ele>403.2109375</ele>
        <time>2014-05-29T08:46:30Z</time>
      </trkpt>
      <trkpt lat="43.30224" lon="6.02736">
        <ele>403.31640625</ele>
        <time>2014-05-29T08:46:36Z</time>
      </trkpt>
      <trkpt lat="43.30241" lon="6.02729">
        <ele>403.66015625</ele>
        <time>2014-05-29T08:46:46Z</time>
      </trkpt>
      <trkpt lat="43.30247" lon="6.02733">
        <ele>402.55078125</ele>
        <time>2014-05-29T08:46:48Z</time>
      </trkpt>
      <trkpt lat="43.3027" lon="6.02742">
        <ele>396.89453125</ele>
        <time>2014-05-29T08:46:56Z</time>
      </trkpt>
      <trkpt lat="43.30274" lon="6.02745">
        <ele>395.2578125</ele>
        <time>2014-05-29T08:46:58Z</time>
      </trkpt>
      <trkpt lat="43.30282" lon="6.02741">
        <ele>394.96875</ele>
        <time>2014-05-29T08:47:02Z</time>
      </trkpt>
      <trkpt lat="43.30291" lon="6.02735">
        <ele>394.53125</ele>
        <time>2014-05-29T08:47:09Z</time>
      </trkpt>
      <trkpt lat="43.30294" lon="6.02736">
        <ele>393.5625</ele>
        <time>2014-05-29T08:47:12Z</time>
      </trkpt>
      <trkpt lat="43.30299" lon="6.02733">
        <ele>393.25</ele>
        <time>2014-05-29T08:47:15Z</time>
      </trkpt>
      <trkpt lat="43.30301" lon="6.02731">
        <ele>393.234375</ele>
        <time>2014-05-29T08:47:16Z</time>
      </trkpt>
      <trkpt lat="43.30309" lon="6.02727">
        <ele>392.2890625</ele>
        <time>2014-05-29T08:47:20Z</time>
      </trkpt>
      <trkpt lat="43.30324" lon="6.02717">
        <ele>390.65625</ele>
        <time>2014-05-29T08:47:26Z</time>
      </trkpt>
      <trkpt lat="43.30338" lon="6.02714">
        <ele>386.8125</ele>
        <time>2014-05-29T08:47:31Z</time>
      </trkpt>
      <trkpt lat="43.30343" lon="6.0272">
        <ele>384.46484375</ele>
        <time>2014-05-29T08:47:33Z</time>
      </trkpt>
      <trkpt lat="43.30347" lon="6.02725">
        <ele>382.5859375</ele>
        <time>2014-05-29T08:47:35Z</time>
      </trkpt>
      <trkpt lat="43.30359" lon="6.02717">
        <ele>380.6328125</ele>
        <time>2014-05-29T08:47:39Z</time>
      </trkpt>
      <trkpt lat="43.30357" lon="6.02692">
        <ele>381.31640625</ele>
        <time>2014-05-29T08:47:45Z</time>
      </trkpt>
      <trkpt lat="43.30359" lon="6.0269">
        <ele>380.79296875</ele>
        <time>2014-05-29T08:47:46Z</time>
      </trkpt>
      <trkpt lat="43.30361" lon="6.02688">
        <ele>380.02734375</ele>
        <time>2014-05-29T08:47:47Z</time>
      </trkpt>
      <trkpt lat="43.30367" lon="6.0269">
        <ele>378.4296875</ele>
        <time>2014-05-29T08:47:50Z</time>
      </trkpt>
      <trkpt lat="43.3037" lon="6.02699">
        <ele>377.66015625</ele>
        <time>2014-05-29T08:47:53Z</time>
      </trkpt>
      <trkpt lat="43.30374" lon="6.02714">
        <ele>376.48828125</ele>
        <time>2014-05-29T08:47:57Z</time>
      </trkpt>
      <trkpt lat="43.3039" lon="6.02712">
        <ele>371.8828125</ele>
        <time>2014-05-29T08:48:03Z</time>
      </trkpt>
      <trkpt lat="43.30403" lon="6.0271">
        <ele>368.171875</ele>
        <time>2014-05-29T08:48:09Z</time>
      </trkpt>
      <trkpt lat="43.30406" lon="6.0271">
        <ele>367.09375</ele>
        <time>2014-05-29T08:48:10Z</time>
      </trkpt>
      <trkpt lat="43.30411" lon="6.02708">
        <ele>365.609375</ele>
        <time>2014-05-29T08:48:11Z</time>
      </trkpt>
      <trkpt lat="43.30421" lon="6.0271">
        <ele>363.125</ele>
        <time>2014-05-29T08:48:14Z</time>
      </trkpt>
      <trkpt lat="43.30427" lon="6.02715">
        <ele>361.7578125</ele>
        <time>2014-05-29T08:48:16Z</time>
      </trkpt>
      <trkpt lat="43.30441" lon="6.02717">
        <ele>358.7734375</ele>
        <time>2014-05-29T08:48:20Z</time>
      </trkpt>
      <trkpt lat="43.30445" lon="6.02717">
        <ele>357.953125</ele>
        <time>2014-05-29T08:48:21Z</time>
      </trkpt>
      <trkpt lat="43.30447" lon="6.02716">
        <ele>357.6171875</ele>
        <time>2014-05-29T08:48:22Z</time>
      </trkpt>
      <trkpt lat="43.30449" lon="6.02711">
        <ele>357.328125</ele>
        <time>2014-05-29T08:48:24Z</time>
      </trkpt>
      <trkpt lat="43.30451" lon="6.02713">
        <ele>357.0625</ele>
        <time>2014-05-29T08:48:26Z</time>
      </trkpt>
      <trkpt lat="43.30457" lon="6.02711">
        <ele>356.21484375</ele>
        <time>2014-05-29T08:48:29Z</time>
      </trkpt>
      <trkpt lat="43.30462" lon="6.02704">
        <ele>355.53515625</ele>
        <time>2014-05-29T08:48:31Z</time>
      </trkpt>
      <trkpt lat="43.30464" lon="6.02702">
        <ele>355.21875</ele>
        <time>2014-05-29T08:48:32Z</time>
      </trkpt>
      <trkpt lat="43.30466" lon="6.02701">
        <ele>354.90234375</ele>
        <time>2014-05-29T08:48:33Z</time>
      </trkpt>
      <trkpt lat="43.30476" lon="6.02696">
        <ele>353.625</ele>
        <time>2014-05-29T08:48:36Z</time>
      </trkpt>
      <trkpt lat="43.3048" lon="6.02684">
        <ele>353.23046875</ele>
        <time>2014-05-29T08:48:44Z</time>
      </trkpt>
      <trkpt lat="43.30487" lon="6.02668">
        <ele>352.7890625</ele>
        <time>2014-05-29T08:48:50Z</time>
      </trkpt>
      <trkpt lat="43.30494" lon="6.0266">
        <ele>352.45703125</ele>
        <time>2014-05-29T08:48:54Z</time>
      </trkpt>
      <trkpt lat="43.30501" lon="6.02652">
        <ele>352.21484375</ele>
        <time>2014-05-29T08:49:09Z</time>
      </trkpt>
      <trkpt lat="43.30532" lon="6.02633">
        <ele>349.85546875</ele>
        <time>2014-05-29T08:49:20Z</time>
      </trkpt>
      <trkpt lat="43.30565" lon="6.02615">
        <ele>348.32421875</ele>
        <time>2014-05-29T08:49:30Z</time>
      </trkpt>
      <trkpt lat="43.30565" lon="6.02612">
        <ele>348.34375</ele>
        <time>2014-05-29T08:49:31Z</time>
      </trkpt>
      <trkpt lat="43.30563" lon="6.02598">
        <ele>348.48828125</ele>
        <time>2014-05-29T08:49:35Z</time>
      </trkpt>
      <trkpt lat="43.30563" lon="6.02594">
        <ele>348.45703125</ele>
        <time>2014-05-29T08:49:36Z</time>
      </trkpt>
      <trkpt lat="43.30563" lon="6.0259">
        <ele>348.44921875</ele>
        <time>2014-05-29T08:49:37Z</time>
      </trkpt>
      <trkpt lat="43.30563" lon="6.02587">
        <ele>348.48046875</ele>
        <time>2014-05-29T08:49:38Z</time>
      </trkpt>
      <trkpt lat="43.30563" lon="6.02584">
        <ele>348.51953125</ele>
        <time>2014-05-29T08:49:39Z</time>
      </trkpt>
      <trkpt lat="43.30562" lon="6.02581">
        <ele>348.55078125</ele>
        <time>2014-05-29T08:49:40Z</time>
      </trkpt>
      <trkpt lat="43.30557" lon="6.02519">
        <ele>347.8515625</ele>
        <time>2014-05-29T08:49:55Z</time>
      </trkpt>
      <trkpt lat="43.30556" lon="6.02456">
        <ele>345.671875</ele>
        <time>2014-05-29T08:50:04Z</time>
      </trkpt>
      <trkpt lat="43.30556" lon="6.02448">
        <ele>345.33203125</ele>
        <time>2014-05-29T08:50:05Z</time>
      </trkpt>
      <trkpt lat="43.30563" lon="6.02401">
        <ele>343.375</ele>
        <time>2014-05-29T08:50:10Z</time>
      </trkpt>
      <trkpt lat="43.30568" lon="6.02383">
        <ele>342.66796875</ele>
        <time>2014-05-29T08:50:12Z</time>
      </trkpt>
      <trkpt lat="43.30571" lon="6.02376">
        <ele>342.328125</ele>
        <time>2014-05-29T08:50:13Z</time>
      </trkpt>
      <trkpt lat="43.30578" lon="6.02366">
        <ele>341.59765625</ele>
        <time>2014-05-29T08:50:15Z</time>
      </trkpt>
      <trkpt lat="43.30589" lon="6.02355">
        <ele>340.625</ele>
        <time>2014-05-29T08:50:18Z</time>
      </trkpt>
      <trkpt lat="43.30592" lon="6.0235">
        <ele>340.59765625</ele>
        <time>2014-05-29T08:50:19Z</time>
      </trkpt>
      <trkpt lat="43.30594" lon="6.02347">
        <ele>340.56640625</ele>
        <time>2014-05-29T08:50:20Z</time>
      </trkpt>
      <trkpt lat="43.30597" lon="6.02344">
        <ele>340.48046875</ele>
        <time>2014-05-29T08:50:21Z</time>
      </trkpt>
      <trkpt lat="43.306" lon="6.02342">
        <ele>340.30078125</ele>
        <time>2014-05-29T08:50:22Z</time>
      </trkpt>
      <trkpt lat="43.30604" lon="6.02342">
        <ele>340.0390625</ele>
        <time>2014-05-29T08:50:23Z</time>
      </trkpt>
      <trkpt lat="43.30607" lon="6.02342">
        <ele>339.765625</ele>
        <time>2014-05-29T08:50:24Z</time>
      </trkpt>
      <trkpt lat="43.30611" lon="6.02342">
        <ele>339.5078125</ele>
        <time>2014-05-29T08:50:25Z</time>
      </trkpt>
      <trkpt lat="43.30614" lon="6.02343">
        <ele>339.34765625</ele>
        <time>2014-05-29T08:50:26Z</time>
      </trkpt>
      <trkpt lat="43.30619" lon="6.02343">
        <ele>339.18359375</ele>
        <time>2014-05-29T08:50:27Z</time>
      </trkpt>
      <trkpt lat="43.30622" lon="6.02343">
        <ele>339.05078125</ele>
        <time>2014-05-29T08:50:28Z</time>
      </trkpt>
      <trkpt lat="43.30627" lon="6.02341">
        <ele>338.9296875</ele>
        <time>2014-05-29T08:50:29Z</time>
      </trkpt>
      <trkpt lat="43.30631" lon="6.0234">
        <ele>338.83984375</ele>
        <time>2014-05-29T08:50:30Z</time>
      </trkpt>
      <trkpt lat="43.30633" lon="6.0234">
        <ele>338.76953125</ele>
        <time>2014-05-29T08:50:31Z</time>
      </trkpt>
      <trkpt lat="43.30635" lon="6.0234">
        <ele>338.70703125</ele>
        <time>2014-05-29T08:50:32Z</time>
      </trkpt>
      <trkpt lat="43.30639" lon="6.02339">
        <ele>338.6015625</ele>
        <time>2014-05-29T08:50:43Z</time>
      </trkpt>
      <trkpt lat="43.30643" lon="6.02326">
        <ele>339.1015625</ele>
        <time>2014-05-29T08:50:56Z</time>
      </trkpt>
      <trkpt lat="43.30645" lon="6.02322">
        <ele>339.4296875</ele>
        <time>2014-05-29T08:51:06Z</time>
      </trkpt>
      <trkpt lat="43.30648" lon="6.02318">
        <ele>339.6640625</ele>
        <time>2014-05-29T08:51:21Z</time>
      </trkpt>
      <trkpt lat="43.30649" lon="6.02318">
        <ele>339.68359375</ele>
        <time>2014-05-29T08:51:23Z</time>
      </trkpt>
      <trkpt lat="43.30686" lon="6.02322">
        <ele>337.8671875</ele>
        <time>2014-05-29T08:51:37Z</time>
      </trkpt>
      <trkpt lat="43.30693" lon="6.02321">
        <ele>337.37109375</ele>
        <time>2014-05-29T08:51:39Z</time>
      </trkpt>
      <trkpt lat="43.30696" lon="6.02318">
        <ele>337.28125</ele>
        <time>2014-05-29T08:51:40Z</time>
      </trkpt>
      <trkpt lat="43.30699" lon="6.02315">
        <ele>337.28125</ele>
        <time>2014-05-29T08:51:41Z</time>
      </trkpt>
      <trkpt lat="43.3071" lon="6.02302">
        <ele>337.3515625</ele>
        <time>2014-05-29T08:51:48Z</time>
      </trkpt>
      <trkpt lat="43.30712" lon="6.02301">
        <ele>337.30859375</ele>
        <time>2014-05-29T08:51:49Z</time>
      </trkpt>
      <trkpt lat="43.30714" lon="6.023">
        <ele>337.30078125</ele>
        <time>2014-05-29T08:51:50Z</time>
      </trkpt>
      <trkpt lat="43.30715" lon="6.02298">
        <ele>337.3828125</ele>
        <time>2014-05-29T08:51:51Z</time>
      </trkpt>
      <trkpt lat="43.30716" lon="6.02297">
        <ele>337.47265625</ele>
        <time>2014-05-29T08:51:52Z</time>
      </trkpt>
      <trkpt lat="43.30726" lon="6.02286">
        <ele>338.0234375</ele>
        <time>2014-05-29T08:52:02Z</time>
      </trkpt>
      <trkpt lat="43.30728" lon="6.02284">
        <ele>338.11328125</ele>
        <time>2014-05-29T08:52:06Z</time>
      </trkpt>
      <trkpt lat="43.3073" lon="6.02283">
        <ele>338.203125</ele>
        <time>2014-05-29T08:52:07Z</time>
      </trkpt>
      <trkpt lat="43.30731" lon="6.02282">
        <ele>338.26953125</ele>
        <time>2014-05-29T08:52:08Z</time>
      </trkpt>
      <trkpt lat="43.30732" lon="6.0228">
        <ele>338.40234375</ele>
        <time>2014-05-29T08:52:09Z</time>
      </trkpt>
      <trkpt lat="43.30733" lon="6.02279">
        <ele>338.50390625</ele>
        <time>2014-05-29T08:52:10Z</time>
      </trkpt>
      <trkpt lat="43.30736" lon="6.02277">
        <ele>338.63671875</ele>
        <time>2014-05-29T08:52:13Z</time>
      </trkpt>
      <trkpt lat="43.30738" lon="6.02276">
        <ele>338.68359375</ele>
        <time>2014-05-29T08:52:14Z</time>
      </trkpt>
      <trkpt lat="43.3074" lon="6.02276">
        <ele>338.69140625</ele>
        <time>2014-05-29T08:52:15Z</time>
      </trkpt>
      <trkpt lat="43.30742" lon="6.02277">
        <ele>338.65234375</ele>
        <time>2014-05-29T08:52:16Z</time>
      </trkpt>
      <trkpt lat="43.30745" lon="6.02277">
        <ele>338.6328125</ele>
        <time>2014-05-29T08:52:17Z</time>
      </trkpt>
      <trkpt lat="43.30771" lon="6.02273">
        <ele>338.1328125</ele>
        <time>2014-05-29T08:52:25Z</time>
      </trkpt>
      <trkpt lat="43.3078" lon="6.02269">
        <ele>338.31640625</ele>
        <time>2014-05-29T08:52:27Z</time>
      </trkpt>
      <trkpt lat="43.30784" lon="6.02269">
        <ele>338.36328125</ele>
        <time>2014-05-29T08:52:28Z</time>
      </trkpt>
      <trkpt lat="43.30788" lon="6.0227">
        <ele>338.2421875</ele>
        <time>2014-05-29T08:52:29Z</time>
      </trkpt>
      <trkpt lat="43.30791" lon="6.02271">
        <ele>338.0703125</ele>
        <time>2014-05-29T08:52:30Z</time>
      </trkpt>
      <trkpt lat="43.30794" lon="6.02271">
        <ele>338.046875</ele>
        <time>2014-05-29T08:52:31Z</time>
      </trkpt>
      <trkpt lat="43.30796" lon="6.02271">
        <ele>338.1328125</ele>
        <time>2014-05-29T08:52:32Z</time>
      </trkpt>
      <trkpt lat="43.30798" lon="6.02271">
        <ele>338.14453125</ele>
        <time>2014-05-29T08:52:33Z</time>
      </trkpt>
      <trkpt lat="43.308" lon="6.02272">
        <ele>338.04296875</ele>
        <time>2014-05-29T08:52:34Z</time>
      </trkpt>
      <trkpt lat="43.30802" lon="6.02274">
        <ele>337.8359375</ele>
        <time>2014-05-29T08:52:35Z</time>
      </trkpt>
      <trkpt lat="43.30805" lon="6.02276">
        <ele>337.52734375</ele>
        <time>2014-05-29T08:52:36Z</time>
      </trkpt>
      <trkpt lat="43.30807" lon="6.02279">
        <ele>337.11328125</ele>
        <time>2014-05-29T08:52:37Z</time>
      </trkpt>
      <trkpt lat="43.3081" lon="6.02281">
        <ele>336.75</ele>
        <time>2014-05-29T08:52:38Z</time>
      </trkpt>
      <trkpt lat="43.30813" lon="6.02282">
        <ele>336.484375</ele>
        <time>2014-05-29T08:52:39Z</time>
      </trkpt>
      <trkpt lat="43.30816" lon="6.02282">
        <ele>336.296875</ele>
        <time>2014-05-29T08:52:40Z</time>
      </trkpt>
      <trkpt lat="43.30847" lon="6.02283">
        <ele>334.46875</ele>
        <time>2014-05-29T08:52:49Z</time>
      </trkpt>
      <trkpt lat="43.30873" lon="6.02259">
        <ele>333.60546875</ele>
        <time>2014-05-29T08:53:00Z</time>
      </trkpt>
      <trkpt lat="43.30889" lon="6.02248">
        <ele>332.83203125</ele>
        <time>2014-05-29T08:53:10Z</time>
      </trkpt>
      <trkpt lat="43.30891" lon="6.02245">
        <ele>332.8203125</ele>
        <time>2014-05-29T08:53:12Z</time>
      </trkpt>
      <trkpt lat="43.30897" lon="6.02232">
        <ele>333.17578125</ele>
        <time>2014-05-29T08:53:20Z</time>
      </trkpt>
      <trkpt lat="43.30898" lon="6.0223">
        <ele>333.23828125</ele>
        <time>2014-05-29T08:53:21Z</time>
      </trkpt>
      <trkpt lat="43.30898" lon="6.02228">
        <ele>333.3125</ele>
        <time>2014-05-29T08:53:22Z</time>
      </trkpt>
      <trkpt lat="43.30909" lon="6.0219">
        <ele>333.99609375</ele>
        <time>2014-05-29T08:53:35Z</time>
      </trkpt>
      <trkpt lat="43.30921" lon="6.02158">
        <ele>333.36328125</ele>
        <time>2014-05-29T08:53:43Z</time>
      </trkpt>
      <trkpt lat="43.30925" lon="6.02145">
        <ele>332.78515625</ele>
        <time>2014-05-29T08:53:53Z</time>
      </trkpt>
      <trkpt lat="43.30926" lon="6.02143">
        <ele>332.640625</ele>
        <time>2014-05-29T08:53:57Z</time>
      </trkpt>
      <trkpt lat="43.30932" lon="6.02142">
        <ele>331.87109375</ele>
        <time>2014-05-29T08:54:00Z</time>
      </trkpt>
      <trkpt lat="43.30935" lon="6.02142">
        <ele>331.34765625</ele>
        <time>2014-05-29T08:54:03Z</time>
      </trkpt>
      <trkpt lat="43.30935" lon="6.02142">
        <ele>331.30078125</ele>
        <time>2014-05-29T08:54:04Z</time>
      </trkpt>
      <trkpt lat="43.30944" lon="6.02144">
        <ele>330.0546875</ele>
        <time>2014-05-29T08:54:21Z</time>
      </trkpt>
      <trkpt lat="43.30946" lon="6.02144">
        <ele>329.953125</ele>
        <time>2014-05-29T08:54:23Z</time>
      </trkpt>
      <trkpt lat="43.30946" lon="6.02138">
        <ele>329.953125</ele>
        <time>2014-05-29T08:54:36Z</time>
      </trkpt>
      <trkpt lat="43.30945" lon="6.02136">
        <ele>329.9921875</ele>
        <time>2014-05-29T08:54:47Z</time>
      </trkpt>
      <trkpt lat="43.30959" lon="6.02115">
        <ele>329.4921875</ele>
        <time>2014-05-29T08:54:58Z</time>
      </trkpt>
      <trkpt lat="43.30961" lon="6.02078">
        <ele>329.4140625</ele>
        <time>2014-05-29T08:55:09Z</time>
      </trkpt>
      <trkpt lat="43.30965" lon="6.02066">
        <ele>329.390625</ele>
        <time>2014-05-29T08:55:13Z</time>
      </trkpt>
      <trkpt lat="43.30978" lon="6.02055">
        <ele>328.79296875</ele>
        <time>2014-05-29T08:55:20Z</time>
      </trkpt>
      <trkpt lat="43.30981" lon="6.01999">
        <ele>328.69921875</ele>
        <time>2014-05-29T08:55:35Z</time>
      </trkpt>
      <trkpt lat="43.30991" lon="6.01952">
        <ele>328.51953125</ele>
        <time>2014-05-29T08:55:46Z</time>
      </trkpt>
      <trkpt lat="43.30997" lon="6.01902">
        <ele>328.06640625</ele>
        <time>2014-05-29T08:56:00Z</time>
      </trkpt>
      <trkpt lat="43.30999" lon="6.01901">
        <ele>327.7734375</ele>
        <time>2014-05-29T08:56:06Z</time>
      </trkpt>
      <trkpt lat="43.31" lon="6.019">
        <ele>327.62109375</ele>
        <time>2014-05-29T08:56:07Z</time>
      </trkpt>
      <trkpt lat="43.31" lon="6.01898">
        <ele>327.51171875</ele>
        <time>2014-05-29T08:56:08Z</time>
      </trkpt>
      <trkpt lat="43.31" lon="6.01895">
        <ele>327.421875</ele>
        <time>2014-05-29T08:56:09Z</time>
      </trkpt>
      <trkpt lat="43.30999" lon="6.01892">
        <ele>327.40625</ele>
        <time>2014-05-29T08:56:10Z</time>
      </trkpt>
      <trkpt lat="43.30998" lon="6.01889">
        <ele>327.421875</ele>
        <time>2014-05-29T08:56:11Z</time>
      </trkpt>
      <trkpt lat="43.30995" lon="6.0187">
        <ele>327.7890625</ele>
        <time>2014-05-29T08:56:18Z</time>
      </trkpt>
      <trkpt lat="43.30994" lon="6.01868">
        <ele>327.8515625</ele>
        <time>2014-05-29T08:56:19Z</time>
      </trkpt>
      <trkpt lat="43.30994" lon="6.01866">
        <ele>327.93359375</ele>
        <time>2014-05-29T08:56:20Z</time>
      </trkpt>
      <trkpt lat="43.30994" lon="6.01863">
        <ele>327.9296875</ele>
        <time>2014-05-29T08:56:21Z</time>
      </trkpt>
      <trkpt lat="43.30994" lon="6.01861">
        <ele>327.88671875</ele>
        <time>2014-05-29T08:56:22Z</time>
      </trkpt>
      <trkpt lat="43.30994" lon="6.01859">
        <ele>327.86328125</ele>
        <time>2014-05-29T08:56:23Z</time>
      </trkpt>
      <trkpt lat="43.30994" lon="6.01856">
        <ele>327.86328125</ele>
        <time>2014-05-29T08:56:24Z</time>
      </trkpt>
      <trkpt lat="43.30993" lon="6.01849">
        <ele>327.953125</ele>
        <time>2014-05-29T08:56:37Z</time>
      </trkpt>
      <trkpt lat="43.30993" lon="6.01848">
        <ele>327.95703125</ele>
        <time>2014-05-29T08:56:48Z</time>
      </trkpt>
      <trkpt lat="43.30994" lon="6.01848">
        <ele>327.91015625</ele>
        <time>2014-05-29T08:57:13Z</time>
      </trkpt>
      <trkpt lat="43.30994" lon="6.01847">
        <ele>327.89453125</ele>
        <time>2014-05-29T08:57:31Z</time>
      </trkpt>
      <trkpt lat="43.30994" lon="6.01847">
        <ele>327.94140625</ele>
        <time>2014-05-29T08:57:50Z</time>
      </trkpt>
      <trkpt lat="43.30994" lon="6.01848">
        <ele>327.8828125</ele>
        <time>2014-05-29T08:58:14Z</time>
      </trkpt>
      <trkpt lat="43.30996" lon="6.0185">
        <ele>327.62109375</ele>
        <time>2014-05-29T08:58:39Z</time>
      </trkpt>
      <trkpt lat="43.30996" lon="6.01849">
        <ele>327.53125</ele>
        <time>2014-05-29T08:59:17Z</time>
      </trkpt>
      <trkpt lat="43.30996" lon="6.01851">
        <ele>327.55859375</ele>
        <time>2014-05-29T08:59:47Z</time>
      </trkpt>
      <trkpt lat="43.30993" lon="6.01847">
        <ele>328.02734375</ele>
        <time>2014-05-29T09:00:20Z</time>
      </trkpt>
      <trkpt lat="43.30994" lon="6.01848">
        <ele>327.87890625</ele>
        <time>2014-05-29T09:01:00Z</time>
      </trkpt>
      <trkpt lat="43.30992" lon="6.0185">
        <ele>328.19921875</ele>
        <time>2014-05-29T09:01:25Z</time>
      </trkpt>
      <trkpt lat="43.30991" lon="6.01853">
        <ele>328.3046875</ele>
        <time>2014-05-29T09:01:46Z</time>
      </trkpt>
      <trkpt lat="43.30991" lon="6.01853">
        <ele>328.2890625</ele>
        <time>2014-05-29T09:02:10Z</time>
      </trkpt>
      <trkpt lat="43.30992" lon="6.01853">
        <ele>328.16796875</ele>
        <time>2014-05-29T09:02:42Z</time>
      </trkpt>
      <trkpt lat="43.3099" lon="6.01851">
        <ele>328.375</ele>
        <time>2014-05-29T09:03:02Z</time>
      </trkpt>
      <trkpt lat="43.3099" lon="6.01849">
        <ele>328.40234375</ele>
        <time>2014-05-29T09:03:21Z</time>
      </trkpt>
      <trkpt lat="43.3099" lon="6.01847">
        <ele>328.4453125</ele>
        <time>2014-05-29T09:03:22Z</time>
      </trkpt>
      <trkpt lat="43.3099" lon="6.01845">
        <ele>328.46875</ele>
        <time>2014-05-29T09:03:23Z</time>
      </trkpt>
      <trkpt lat="43.30991" lon="6.01818">
        <ele>328.2890625</ele>
        <time>2014-05-29T09:03:36Z</time>
      </trkpt>
      <trkpt lat="43.30993" lon="6.01773">
        <ele>328.73046875</ele>
        <time>2014-05-29T09:03:52Z</time>
      </trkpt>
      <trkpt lat="43.30993" lon="6.01724">
        <ele>327.9609375</ele>
        <time>2014-05-29T09:04:06Z</time>
      </trkpt>
      <trkpt lat="43.30985" lon="6.01659">
        <ele>327.52734375</ele>
        <time>2014-05-29T09:04:22Z</time>
      </trkpt>
      <trkpt lat="43.30975" lon="6.01635">
        <ele>327.71484375</ele>
        <time>2014-05-29T09:04:27Z</time>
      </trkpt>
      <trkpt lat="43.3097" lon="6.01626">
        <ele>328.0546875</ele>
        <time>2014-05-29T09:04:29Z</time>
      </trkpt>
      <trkpt lat="43.30941" lon="6.016">
        <ele>330.265625</ele>
        <time>2014-05-29T09:04:39Z</time>
      </trkpt>
      <trkpt lat="43.30933" lon="6.01596">
        <ele>330.98828125</ele>
        <time>2014-05-29T09:04:41Z</time>
      </trkpt>
      <trkpt lat="43.3093" lon="6.01594">
        <ele>331.25390625</ele>
        <time>2014-05-29T09:04:42Z</time>
      </trkpt>
      <trkpt lat="43.30926" lon="6.0159">
        <ele>331.34375</ele>
        <time>2014-05-29T09:04:43Z</time>
      </trkpt>
      <trkpt lat="43.30924" lon="6.01585">
        <ele>331.1484375</ele>
        <time>2014-05-29T09:04:44Z</time>
      </trkpt>
      <trkpt lat="43.30923" lon="6.0158">
        <ele>330.71484375</ele>
        <time>2014-05-29T09:04:45Z</time>
      </trkpt>
      <trkpt lat="43.30924" lon="6.01573">
        <ele>330.6328125</ele>
        <time>2014-05-29T09:04:46Z</time>
      </trkpt>
      <trkpt lat="43.30926" lon="6.01568">
        <ele>330.59375</ele>
        <time>2014-05-29T09:04:47Z</time>
      </trkpt>
      <trkpt lat="43.30929" lon="6.01564">
        <ele>330.40234375</ele>
        <time>2014-05-29T09:04:48Z</time>
      </trkpt>
      <trkpt lat="43.30932" lon="6.01561">
        <ele>330.140625</ele>
        <time>2014-05-29T09:04:49Z</time>
      </trkpt>
      <trkpt lat="43.30936" lon="6.01559">
        <ele>329.875</ele>
        <time>2014-05-29T09:04:50Z</time>
      </trkpt>
      <trkpt lat="43.30939" lon="6.01556">
        <ele>329.578125</ele>
        <time>2014-05-29T09:04:51Z</time>
      </trkpt>
      <trkpt lat="43.30973" lon="6.0152">
        <ele>328.04296875</ele>
        <time>2014-05-29T09:05:04Z</time>
      </trkpt>
      <trkpt lat="43.30975" lon="6.0147">
        <ele>329.671875</ele>
        <time>2014-05-29T09:05:16Z</time>
      </trkpt>
      <trkpt lat="43.3097" lon="6.01422">
        <ele>331.7890625</ele>
        <time>2014-05-29T09:05:30Z</time>
      </trkpt>
      <trkpt lat="43.30962" lon="6.01368">
        <ele>333.36328125</ele>
        <time>2014-05-29T09:05:46Z</time>
      </trkpt>
      <trkpt lat="43.30961" lon="6.01363">
        <ele>333.41015625</ele>
        <time>2014-05-29T09:05:48Z</time>
      </trkpt>
      <trkpt lat="43.30961" lon="6.01361">
        <ele>333.39453125</ele>
        <time>2014-05-29T09:05:49Z</time>
      </trkpt>
      <trkpt lat="43.30963" lon="6.01361">
        <ele>333.34375</ele>
        <time>2014-05-29T09:05:50Z</time>
      </trkpt>
      <trkpt lat="43.30965" lon="6.0136">
        <ele>333.265625</ele>
        <time>2014-05-29T09:05:51Z</time>
      </trkpt>
      <trkpt lat="43.30968" lon="6.0136">
        <ele>333.171875</ele>
        <time>2014-05-29T09:05:52Z</time>
      </trkpt>
      <trkpt lat="43.3097" lon="6.01359">
        <ele>333.06640625</ele>
        <time>2014-05-29T09:05:53Z</time>
      </trkpt>
      <trkpt lat="43.31002" lon="6.01349">
        <ele>332.9296875</ele>
        <time>2014-05-29T09:06:05Z</time>
      </trkpt>
      <trkpt lat="43.31026" lon="6.01339">
        <ele>332.06640625</ele>
        <time>2014-05-29T09:06:15Z</time>
      </trkpt>
      <trkpt lat="43.31028" lon="6.01339">
        <ele>332</ele>
        <time>2014-05-29T09:06:16Z</time>
      </trkpt>
      <trkpt lat="43.3103" lon="6.01339">
        <ele>332</ele>
        <time>2014-05-29T09:06:17Z</time>
      </trkpt>
      <trkpt lat="43.31034" lon="6.01337">
        <ele>332</ele>
        <time>2014-05-29T09:06:19Z</time>
      </trkpt>
      <trkpt lat="43.31036" lon="6.01335">
        <ele>332</ele>
        <time>2014-05-29T09:06:20Z</time>
      </trkpt>
      <trkpt lat="43.31067" lon="6.01329">
        <ele>332</ele>
        <time>2014-05-29T09:06:34Z</time>
      </trkpt>
      <trkpt lat="43.31073" lon="6.01335">
        <ele>332</ele>
        <time>2014-05-29T09:06:46Z</time>
      </trkpt>
      <trkpt lat="43.31071" lon="6.01336">
        <ele>332</ele>
        <time>2014-05-29T09:07:02Z</time>
      </trkpt>
      <trkpt lat="43.3107" lon="6.01337">
        <ele>332</ele>
        <time>2014-05-29T09:07:15Z</time>
      </trkpt>
      <trkpt lat="43.31071" lon="6.01342">
        <ele>332</ele>
        <time>2014-05-29T09:07:40Z</time>
      </trkpt>
    </trkseg>
  </trk>
</gpx>